<?xml version="1.0" encoding="UTF-8" standalone="no" ?>
<gpx xmlns="http://www.topografix.com/GPX/1/1" xmlns:xsi="http://www.w3.org/2001/XMLSchema-instance" xsi:schemaLocation="http://www.topografix.com/GPX/1/1 http://www.topografix.com/GPX/1/1/gpx.xsd" version="1.1" creator="VisuGPX - https://www.visugpx.com">
  <metadata>
    <name>Course à pied le matin</name>
  </metadata>
  <trk>
    <name><![CDATA[Course à pied le matin_1]]></name>
    <trkseg>
      <trkpt lat="48.73147" lon="7.04485">
        <ele>248</ele>
        <time>2023-11-20T09:17:41Z</time>
      </trkpt>
      <trkpt lat="48.73138" lon="7.04509">
        <ele>248</ele>
        <time>2023-11-20T09:17:48Z</time>
      </trkpt>
      <trkpt lat="48.73131" lon="7.04534">
        <ele>248</ele>
        <time>2023-11-20T09:17:56Z</time>
      </trkpt>
      <trkpt lat="48.73121" lon="7.0456">
        <ele>248.2</ele>
        <time>2023-11-20T09:18:03Z</time>
      </trkpt>
      <trkpt lat="48.73113" lon="7.04586">
        <ele>248.5</ele>
        <time>2023-11-20T09:18:10Z</time>
      </trkpt>
      <trkpt lat="48.73111" lon="7.04589">
        <ele>248.5</ele>
        <time>2023-11-20T09:18:11Z</time>
      </trkpt>
      <trkpt lat="48.73094" lon="7.046">
        <ele>248.4</ele>
        <time>2023-11-20T09:18:22Z</time>
      </trkpt>
      <trkpt lat="48.73078" lon="7.04592">
        <ele>248.2</ele>
        <time>2023-11-20T09:18:29Z</time>
      </trkpt>
      <trkpt lat="48.73068" lon="7.04566">
        <ele>248.2</ele>
        <time>2023-11-20T09:18:35Z</time>
      </trkpt>
      <trkpt lat="48.73054" lon="7.04544">
        <ele>248.3</ele>
        <time>2023-11-20T09:18:42Z</time>
      </trkpt>
      <trkpt lat="48.73039" lon="7.04527">
        <ele>248.2</ele>
        <time>2023-11-20T09:18:49Z</time>
      </trkpt>
      <trkpt lat="48.73023" lon="7.04514">
        <ele>248.2</ele>
        <time>2023-11-20T09:18:56Z</time>
      </trkpt>
      <trkpt lat="48.73003" lon="7.04502">
        <ele>248.5</ele>
        <time>2023-11-20T09:19:03Z</time>
      </trkpt>
      <trkpt lat="48.72992" lon="7.04476">
        <ele>248.8</ele>
        <time>2023-11-20T09:19:10Z</time>
      </trkpt>
      <trkpt lat="48.72982" lon="7.04451">
        <ele>249.1</ele>
        <time>2023-11-20T09:19:16Z</time>
      </trkpt>
      <trkpt lat="48.72972" lon="7.04424">
        <ele>249.5</ele>
        <time>2023-11-20T09:19:23Z</time>
      </trkpt>
      <trkpt lat="48.72958" lon="7.04404">
        <ele>249.6</ele>
        <time>2023-11-20T09:19:30Z</time>
      </trkpt>
      <trkpt lat="48.72941" lon="7.04388">
        <ele>249.7</ele>
        <time>2023-11-20T09:19:36Z</time>
      </trkpt>
      <trkpt lat="48.72924" lon="7.04379">
        <ele>249.8</ele>
        <time>2023-11-20T09:19:42Z</time>
      </trkpt>
      <trkpt lat="48.72906" lon="7.04371">
        <ele>249.8</ele>
        <time>2023-11-20T09:19:48Z</time>
      </trkpt>
      <trkpt lat="48.72891" lon="7.04356">
        <ele>250</ele>
        <time>2023-11-20T09:19:54Z</time>
      </trkpt>
      <trkpt lat="48.72879" lon="7.04333">
        <ele>250.2</ele>
        <time>2023-11-20T09:20:01Z</time>
      </trkpt>
      <trkpt lat="48.72868" lon="7.04308">
        <ele>250.3</ele>
        <time>2023-11-20T09:20:08Z</time>
      </trkpt>
      <trkpt lat="48.72861" lon="7.04278">
        <ele>250.3</ele>
        <time>2023-11-20T09:20:15Z</time>
      </trkpt>
      <trkpt lat="48.72856" lon="7.04249">
        <ele>250.2</ele>
        <time>2023-11-20T09:20:22Z</time>
      </trkpt>
      <trkpt lat="48.72846" lon="7.04225">
        <ele>250.3</ele>
        <time>2023-11-20T09:20:28Z</time>
      </trkpt>
      <trkpt lat="48.72833" lon="7.04202">
        <ele>250.3</ele>
        <time>2023-11-20T09:20:35Z</time>
      </trkpt>
      <trkpt lat="48.72824" lon="7.04178">
        <ele>249.7</ele>
        <time>2023-11-20T09:20:41Z</time>
      </trkpt>
      <trkpt lat="48.72828" lon="7.0415">
        <ele>248.4</ele>
        <time>2023-11-20T09:20:47Z</time>
      </trkpt>
      <trkpt lat="48.72833" lon="7.04121">
        <ele>247.4</ele>
        <time>2023-11-20T09:20:53Z</time>
      </trkpt>
      <trkpt lat="48.72846" lon="7.04098">
        <ele>247.1</ele>
        <time>2023-11-20T09:20:59Z</time>
      </trkpt>
      <trkpt lat="48.72864" lon="7.04083">
        <ele>247.1</ele>
        <time>2023-11-20T09:21:06Z</time>
      </trkpt>
      <trkpt lat="48.72872" lon="7.04057">
        <ele>247.2</ele>
        <time>2023-11-20T09:21:13Z</time>
      </trkpt>
      <trkpt lat="48.72866" lon="7.04028">
        <ele>247.4</ele>
        <time>2023-11-20T09:21:20Z</time>
      </trkpt>
      <trkpt lat="48.72853" lon="7.04007">
        <ele>247.6</ele>
        <time>2023-11-20T09:21:27Z</time>
      </trkpt>
      <trkpt lat="48.72837" lon="7.03991">
        <ele>247.6</ele>
        <time>2023-11-20T09:21:34Z</time>
      </trkpt>
      <trkpt lat="48.72836" lon="7.03988">
        <ele>247.6</ele>
        <time>2023-11-20T09:21:35Z</time>
      </trkpt>
      <trkpt lat="48.72838" lon="7.03957">
        <ele>247.3</ele>
        <time>2023-11-20T09:21:42Z</time>
      </trkpt>
      <trkpt lat="48.72834" lon="7.03927">
        <ele>247.2</ele>
        <time>2023-11-20T09:21:49Z</time>
      </trkpt>
      <trkpt lat="48.7282" lon="7.03905">
        <ele>247.1</ele>
        <time>2023-11-20T09:21:56Z</time>
      </trkpt>
      <trkpt lat="48.72806" lon="7.03883">
        <ele>247.1</ele>
        <time>2023-11-20T09:22:03Z</time>
      </trkpt>
      <trkpt lat="48.72794" lon="7.03862">
        <ele>247.2</ele>
        <time>2023-11-20T09:22:10Z</time>
      </trkpt>
      <trkpt lat="48.72788" lon="7.03835">
        <ele>247.2</ele>
        <time>2023-11-20T09:22:17Z</time>
      </trkpt>
      <trkpt lat="48.72786" lon="7.03807">
        <ele>247.4</ele>
        <time>2023-11-20T09:22:24Z</time>
      </trkpt>
      <trkpt lat="48.72793" lon="7.0378">
        <ele>247.5</ele>
        <time>2023-11-20T09:22:31Z</time>
      </trkpt>
      <trkpt lat="48.72807" lon="7.03759">
        <ele>247.8</ele>
        <time>2023-11-20T09:22:38Z</time>
      </trkpt>
      <trkpt lat="48.7282" lon="7.03735">
        <ele>248.1</ele>
        <time>2023-11-20T09:22:45Z</time>
      </trkpt>
      <trkpt lat="48.72827" lon="7.03709">
        <ele>248.2</ele>
        <time>2023-11-20T09:22:51Z</time>
      </trkpt>
      <trkpt lat="48.7282" lon="7.03682">
        <ele>248.3</ele>
        <time>2023-11-20T09:22:57Z</time>
      </trkpt>
      <trkpt lat="48.7281" lon="7.03658">
        <ele>248.2</ele>
        <time>2023-11-20T09:23:03Z</time>
      </trkpt>
      <trkpt lat="48.72803" lon="7.03632">
        <ele>248.2</ele>
        <time>2023-11-20T09:23:09Z</time>
      </trkpt>
      <trkpt lat="48.72797" lon="7.03602">
        <ele>248.1</ele>
        <time>2023-11-20T09:23:16Z</time>
      </trkpt>
      <trkpt lat="48.72807" lon="7.03576">
        <ele>248.1</ele>
        <time>2023-11-20T09:23:22Z</time>
      </trkpt>
      <trkpt lat="48.72819" lon="7.03552">
        <ele>248.1</ele>
        <time>2023-11-20T09:23:30Z</time>
      </trkpt>
      <trkpt lat="48.72821" lon="7.03525">
        <ele>248.2</ele>
        <time>2023-11-20T09:23:37Z</time>
      </trkpt>
      <trkpt lat="48.72819" lon="7.03494">
        <ele>248.3</ele>
        <time>2023-11-20T09:23:44Z</time>
      </trkpt>
      <trkpt lat="48.72823" lon="7.03467">
        <ele>248.3</ele>
        <time>2023-11-20T09:23:51Z</time>
      </trkpt>
      <trkpt lat="48.72824" lon="7.03438">
        <ele>248.4</ele>
        <time>2023-11-20T09:23:58Z</time>
      </trkpt>
      <trkpt lat="48.72824" lon="7.03407">
        <ele>248.4</ele>
        <time>2023-11-20T09:24:04Z</time>
      </trkpt>
      <trkpt lat="48.72824" lon="7.034">
        <ele>248.4</ele>
        <time>2023-11-20T09:24:05Z</time>
      </trkpt>
      <trkpt lat="48.72822" lon="7.03397">
        <ele>248.3</ele>
        <time>2023-11-20T09:24:07Z</time>
      </trkpt>
      <trkpt lat="48.72808" lon="7.03376">
        <ele>248.3</ele>
        <time>2023-11-20T09:24:15Z</time>
      </trkpt>
      <trkpt lat="48.72801" lon="7.03349">
        <ele>248.2</ele>
        <time>2023-11-20T09:24:23Z</time>
      </trkpt>
      <trkpt lat="48.72785" lon="7.03337">
        <ele>247.8</ele>
        <time>2023-11-20T09:24:33Z</time>
      </trkpt>
      <trkpt lat="48.7277" lon="7.03348">
        <ele>247.4</ele>
        <time>2023-11-20T09:24:42Z</time>
      </trkpt>
      <trkpt lat="48.72776" lon="7.03323">
        <ele>247.5</ele>
        <time>2023-11-20T09:24:51Z</time>
      </trkpt>
      <trkpt lat="48.72789" lon="7.033">
        <ele>248.1</ele>
        <time>2023-11-20T09:24:59Z</time>
      </trkpt>
      <trkpt lat="48.72799" lon="7.03273">
        <ele>248.6</ele>
        <time>2023-11-20T09:25:08Z</time>
      </trkpt>
      <trkpt lat="48.72806" lon="7.03246">
        <ele>249.1</ele>
        <time>2023-11-20T09:25:17Z</time>
      </trkpt>
      <trkpt lat="48.72809" lon="7.0324">
        <ele>249.5</ele>
        <time>2023-11-20T09:25:20Z</time>
      </trkpt>
      <trkpt lat="48.72799" lon="7.03219">
        <ele>249</ele>
        <time>2023-11-20T09:26:08Z</time>
      </trkpt>
      <trkpt lat="48.72789" lon="7.03195">
        <ele>248.7</ele>
        <time>2023-11-20T09:26:16Z</time>
      </trkpt>
      <trkpt lat="48.72772" lon="7.03178">
        <ele>248.3</ele>
        <time>2023-11-20T09:26:25Z</time>
      </trkpt>
      <trkpt lat="48.72755" lon="7.03163">
        <ele>248.1</ele>
        <time>2023-11-20T09:26:32Z</time>
      </trkpt>
      <trkpt lat="48.72741" lon="7.03147">
        <ele>248.2</ele>
        <time>2023-11-20T09:26:38Z</time>
      </trkpt>
      <trkpt lat="48.7273" lon="7.03124">
        <ele>248.2</ele>
        <time>2023-11-20T09:26:44Z</time>
      </trkpt>
      <trkpt lat="48.72724" lon="7.03098">
        <ele>248.2</ele>
        <time>2023-11-20T09:26:50Z</time>
      </trkpt>
      <trkpt lat="48.72717" lon="7.0307">
        <ele>248.1</ele>
        <time>2023-11-20T09:26:57Z</time>
      </trkpt>
      <trkpt lat="48.7271" lon="7.03042">
        <ele>248.1</ele>
        <time>2023-11-20T09:27:05Z</time>
      </trkpt>
      <trkpt lat="48.72702" lon="7.03014">
        <ele>248.1</ele>
        <time>2023-11-20T09:27:13Z</time>
      </trkpt>
      <trkpt lat="48.72693" lon="7.0299">
        <ele>248.1</ele>
        <time>2023-11-20T09:27:20Z</time>
      </trkpt>
      <trkpt lat="48.72685" lon="7.02961">
        <ele>248.2</ele>
        <time>2023-11-20T09:27:27Z</time>
      </trkpt>
      <trkpt lat="48.72676" lon="7.02933">
        <ele>248.4</ele>
        <time>2023-11-20T09:27:34Z</time>
      </trkpt>
      <trkpt lat="48.72667" lon="7.02908">
        <ele>248.6</ele>
        <time>2023-11-20T09:27:41Z</time>
      </trkpt>
      <trkpt lat="48.72659" lon="7.02901">
        <ele>248.7</ele>
        <time>2023-11-20T09:27:45Z</time>
      </trkpt>
      <trkpt lat="48.72643" lon="7.02914">
        <ele>248.6</ele>
        <time>2023-11-20T09:27:53Z</time>
      </trkpt>
      <trkpt lat="48.72627" lon="7.0293">
        <ele>248.4</ele>
        <time>2023-11-20T09:28:04Z</time>
      </trkpt>
      <trkpt lat="48.72611" lon="7.02944">
        <ele>248.2</ele>
        <time>2023-11-20T09:28:15Z</time>
      </trkpt>
      <trkpt lat="48.72594" lon="7.02957">
        <ele>248.2</ele>
        <time>2023-11-20T09:28:23Z</time>
      </trkpt>
      <trkpt lat="48.72575" lon="7.0296">
        <ele>248.4</ele>
        <time>2023-11-20T09:28:30Z</time>
      </trkpt>
      <trkpt lat="48.72555" lon="7.0296">
        <ele>248.5</ele>
        <time>2023-11-20T09:28:36Z</time>
      </trkpt>
      <trkpt lat="48.72537" lon="7.0297">
        <ele>248.6</ele>
        <time>2023-11-20T09:28:43Z</time>
      </trkpt>
      <trkpt lat="48.72519" lon="7.02977">
        <ele>248.8</ele>
        <time>2023-11-20T09:28:51Z</time>
      </trkpt>
      <trkpt lat="48.72501" lon="7.02982">
        <ele>248.9</ele>
        <time>2023-11-20T09:29:02Z</time>
      </trkpt>
      <trkpt lat="48.72484" lon="7.02995">
        <ele>248.8</ele>
        <time>2023-11-20T09:29:10Z</time>
      </trkpt>
      <trkpt lat="48.72473" lon="7.03012">
        <ele>248.3</ele>
        <time>2023-11-20T09:29:16Z</time>
      </trkpt>
      <trkpt lat="48.72469" lon="7.0304">
        <ele>248.1</ele>
        <time>2023-11-20T09:29:21Z</time>
      </trkpt>
      <trkpt lat="48.72468" lon="7.03071">
        <ele>247.9</ele>
        <time>2023-11-20T09:29:27Z</time>
      </trkpt>
      <trkpt lat="48.72467" lon="7.031">
        <ele>247.7</ele>
        <time>2023-11-20T09:29:34Z</time>
      </trkpt>
      <trkpt lat="48.7247" lon="7.03128">
        <ele>247.8</ele>
        <time>2023-11-20T09:29:42Z</time>
      </trkpt>
      <trkpt lat="48.72469" lon="7.03157">
        <ele>247.9</ele>
        <time>2023-11-20T09:29:49Z</time>
      </trkpt>
      <trkpt lat="48.72462" lon="7.03183">
        <ele>248.1</ele>
        <time>2023-11-20T09:29:55Z</time>
      </trkpt>
      <trkpt lat="48.72463" lon="7.03213">
        <ele>248.2</ele>
        <time>2023-11-20T09:30:02Z</time>
      </trkpt>
      <trkpt lat="48.72461" lon="7.03241">
        <ele>248.3</ele>
        <time>2023-11-20T09:30:08Z</time>
      </trkpt>
      <trkpt lat="48.72459" lon="7.03268">
        <ele>248.3</ele>
        <time>2023-11-20T09:30:15Z</time>
      </trkpt>
      <trkpt lat="48.72462" lon="7.03298">
        <ele>248.2</ele>
        <time>2023-11-20T09:30:29Z</time>
      </trkpt>
      <trkpt lat="48.72475" lon="7.0332">
        <ele>248.1</ele>
        <time>2023-11-20T09:30:35Z</time>
      </trkpt>
      <trkpt lat="48.72488" lon="7.03344">
        <ele>248.2</ele>
        <time>2023-11-20T09:30:42Z</time>
      </trkpt>
      <trkpt lat="48.72495" lon="7.0337">
        <ele>248.2</ele>
        <time>2023-11-20T09:30:51Z</time>
      </trkpt>
      <trkpt lat="48.72498" lon="7.03398">
        <ele>248.1</ele>
        <time>2023-11-20T09:30:58Z</time>
      </trkpt>
      <trkpt lat="48.72506" lon="7.03426">
        <ele>248</ele>
        <time>2023-11-20T09:31:06Z</time>
      </trkpt>
      <trkpt lat="48.72515" lon="7.03451">
        <ele>247.8</ele>
        <time>2023-11-20T09:31:13Z</time>
      </trkpt>
      <trkpt lat="48.72522" lon="7.03479">
        <ele>247.7</ele>
        <time>2023-11-20T09:31:20Z</time>
      </trkpt>
      <trkpt lat="48.72532" lon="7.03505">
        <ele>247.7</ele>
        <time>2023-11-20T09:31:27Z</time>
      </trkpt>
      <trkpt lat="48.7254" lon="7.03534">
        <ele>247.7</ele>
        <time>2023-11-20T09:31:34Z</time>
      </trkpt>
      <trkpt lat="48.7255" lon="7.03562">
        <ele>247.8</ele>
        <time>2023-11-20T09:31:40Z</time>
      </trkpt>
      <trkpt lat="48.72546" lon="7.03589">
        <ele>247.9</ele>
        <time>2023-11-20T09:31:45Z</time>
      </trkpt>
      <trkpt lat="48.72545" lon="7.03595">
        <ele>247.9</ele>
        <time>2023-11-20T09:31:46Z</time>
      </trkpt>
      <trkpt lat="48.72549" lon="7.03626">
        <ele>248.1</ele>
        <time>2023-11-20T09:31:51Z</time>
      </trkpt>
      <trkpt lat="48.72562" lon="7.03648">
        <ele>248</ele>
        <time>2023-11-20T09:31:55Z</time>
      </trkpt>
      <trkpt lat="48.72574" lon="7.03671">
        <ele>247.9</ele>
        <time>2023-11-20T09:31:59Z</time>
      </trkpt>
      <trkpt lat="48.72578" lon="7.03685">
        <ele>247.9</ele>
        <time>2023-11-20T09:32:01Z</time>
      </trkpt>
      <trkpt lat="48.72579" lon="7.03707">
        <ele>247.9</ele>
        <time>2023-11-20T09:32:04Z</time>
      </trkpt>
      <trkpt lat="48.72576" lon="7.03736">
        <ele>248</ele>
        <time>2023-11-20T09:32:08Z</time>
      </trkpt>
      <trkpt lat="48.72576" lon="7.03765">
        <ele>248.1</ele>
        <time>2023-11-20T09:32:12Z</time>
      </trkpt>
      <trkpt lat="48.72576" lon="7.03772">
        <ele>248.1</ele>
        <time>2023-11-20T09:32:13Z</time>
      </trkpt>
      <trkpt lat="48.72582" lon="7.03799">
        <ele>248.1</ele>
        <time>2023-11-20T09:32:17Z</time>
      </trkpt>
      <trkpt lat="48.72589" lon="7.03819">
        <ele>248</ele>
        <time>2023-11-20T09:32:20Z</time>
      </trkpt>
      <trkpt lat="48.726" lon="7.03842">
        <ele>247.8</ele>
        <time>2023-11-20T09:32:24Z</time>
      </trkpt>
      <trkpt lat="48.72603" lon="7.03847">
        <ele>247.8</ele>
        <time>2023-11-20T09:32:25Z</time>
      </trkpt>
      <trkpt lat="48.72619" lon="7.03863">
        <ele>247.6</ele>
        <time>2023-11-20T09:32:29Z</time>
      </trkpt>
      <trkpt lat="48.72636" lon="7.03876">
        <ele>247.4</ele>
        <time>2023-11-20T09:32:33Z</time>
      </trkpt>
      <trkpt lat="48.72647" lon="7.03887">
        <ele>247.2</ele>
        <time>2023-11-20T09:32:36Z</time>
      </trkpt>
      <trkpt lat="48.7266" lon="7.03914">
        <ele>247.1</ele>
        <time>2023-11-20T09:32:41Z</time>
      </trkpt>
      <trkpt lat="48.72669" lon="7.03937">
        <ele>247.2</ele>
        <time>2023-11-20T09:32:45Z</time>
      </trkpt>
      <trkpt lat="48.7268" lon="7.03961">
        <ele>247.2</ele>
        <time>2023-11-20T09:32:49Z</time>
      </trkpt>
      <trkpt lat="48.72687" lon="7.03971">
        <ele>247.2</ele>
        <time>2023-11-20T09:32:50Z</time>
      </trkpt>
      <trkpt lat="48.72702" lon="7.03989">
        <ele>247.2</ele>
        <time>2023-11-20T09:32:55Z</time>
      </trkpt>
      <trkpt lat="48.72718" lon="7.04006">
        <ele>247.1</ele>
        <time>2023-11-20T09:32:59Z</time>
      </trkpt>
      <trkpt lat="48.72726" lon="7.04012">
        <ele>247.1</ele>
        <time>2023-11-20T09:33:01Z</time>
      </trkpt>
      <trkpt lat="48.72734" lon="7.04016">
        <ele>247.1</ele>
        <time>2023-11-20T09:33:03Z</time>
      </trkpt>
      <trkpt lat="48.72748" lon="7.04014">
        <ele>247.1</ele>
        <time>2023-11-20T09:33:06Z</time>
      </trkpt>
      <trkpt lat="48.72766" lon="7.04002">
        <ele>247.1</ele>
        <time>2023-11-20T09:33:10Z</time>
      </trkpt>
      <trkpt lat="48.72783" lon="7.03991">
        <ele>247.2</ele>
        <time>2023-11-20T09:33:14Z</time>
      </trkpt>
      <trkpt lat="48.728" lon="7.03982">
        <ele>247.3</ele>
        <time>2023-11-20T09:33:18Z</time>
      </trkpt>
      <trkpt lat="48.72818" lon="7.03971">
        <ele>247.3</ele>
        <time>2023-11-20T09:33:22Z</time>
      </trkpt>
      <trkpt lat="48.72827" lon="7.03965">
        <ele>247.2</ele>
        <time>2023-11-20T09:33:23Z</time>
      </trkpt>
      <trkpt lat="48.72838" lon="7.03953">
        <ele>247.2</ele>
        <time>2023-11-20T09:33:27Z</time>
      </trkpt>
      <trkpt lat="48.72837" lon="7.03933">
        <ele>247.2</ele>
        <time>2023-11-20T09:33:30Z</time>
      </trkpt>
      <trkpt lat="48.72824" lon="7.03909">
        <ele>247.1</ele>
        <time>2023-11-20T09:33:34Z</time>
      </trkpt>
      <trkpt lat="48.72817" lon="7.03898">
        <ele>247.1</ele>
        <time>2023-11-20T09:33:35Z</time>
      </trkpt>
      <trkpt lat="48.72803" lon="7.03878">
        <ele>247.1</ele>
        <time>2023-11-20T09:33:40Z</time>
      </trkpt>
      <trkpt lat="48.72791" lon="7.03857">
        <ele>247.2</ele>
        <time>2023-11-20T09:33:44Z</time>
      </trkpt>
      <trkpt lat="48.72787" lon="7.03844">
        <ele>247.2</ele>
        <time>2023-11-20T09:33:45Z</time>
      </trkpt>
      <trkpt lat="48.72786" lon="7.03837">
        <ele>247.3</ele>
        <time>2023-11-20T09:33:47Z</time>
      </trkpt>
      <trkpt lat="48.72785" lon="7.03815">
        <ele>247.4</ele>
        <time>2023-11-20T09:33:50Z</time>
      </trkpt>
      <trkpt lat="48.72786" lon="7.038">
        <ele>247.4</ele>
        <time>2023-11-20T09:33:52Z</time>
      </trkpt>
      <trkpt lat="48.72791" lon="7.0378">
        <ele>247.5</ele>
        <time>2023-11-20T09:33:55Z</time>
      </trkpt>
      <trkpt lat="48.72796" lon="7.03769">
        <ele>247.6</ele>
        <time>2023-11-20T09:33:57Z</time>
      </trkpt>
      <trkpt lat="48.72813" lon="7.03747">
        <ele>248</ele>
        <time>2023-11-20T09:34:02Z</time>
      </trkpt>
      <trkpt lat="48.72825" lon="7.03728">
        <ele>248.1</ele>
        <time>2023-11-20T09:34:06Z</time>
      </trkpt>
      <trkpt lat="48.72826" lon="7.03717">
        <ele>248.2</ele>
        <time>2023-11-20T09:34:08Z</time>
      </trkpt>
      <trkpt lat="48.72822" lon="7.03698">
        <ele>248.3</ele>
        <time>2023-11-20T09:34:11Z</time>
      </trkpt>
      <trkpt lat="48.72812" lon="7.03673">
        <ele>248.3</ele>
        <time>2023-11-20T09:34:15Z</time>
      </trkpt>
      <trkpt lat="48.72804" lon="7.03647">
        <ele>248.2</ele>
        <time>2023-11-20T09:34:19Z</time>
      </trkpt>
      <trkpt lat="48.72797" lon="7.03619">
        <ele>248.1</ele>
        <time>2023-11-20T09:34:23Z</time>
      </trkpt>
      <trkpt lat="48.72791" lon="7.03592">
        <ele>248</ele>
        <time>2023-11-20T09:34:27Z</time>
      </trkpt>
      <trkpt lat="48.72783" lon="7.03565">
        <ele>247.9</ele>
        <time>2023-11-20T09:34:31Z</time>
      </trkpt>
      <trkpt lat="48.72772" lon="7.03538">
        <ele>247.9</ele>
        <time>2023-11-20T09:34:36Z</time>
      </trkpt>
      <trkpt lat="48.72766" lon="7.03528">
        <ele>247.9</ele>
        <time>2023-11-20T09:34:38Z</time>
      </trkpt>
      <trkpt lat="48.72752" lon="7.0351">
        <ele>247.9</ele>
        <time>2023-11-20T09:34:42Z</time>
      </trkpt>
      <trkpt lat="48.72736" lon="7.03492">
        <ele>248</ele>
        <time>2023-11-20T09:34:46Z</time>
      </trkpt>
      <trkpt lat="48.72723" lon="7.03474">
        <ele>248</ele>
        <time>2023-11-20T09:34:50Z</time>
      </trkpt>
      <trkpt lat="48.7272" lon="7.03469">
        <ele>248</ele>
        <time>2023-11-20T09:34:51Z</time>
      </trkpt>
      <trkpt lat="48.72708" lon="7.0344">
        <ele>248</ele>
        <time>2023-11-20T09:34:56Z</time>
      </trkpt>
      <trkpt lat="48.72705" lon="7.03427">
        <ele>248.1</ele>
        <time>2023-11-20T09:34:58Z</time>
      </trkpt>
      <trkpt lat="48.72698" lon="7.03401">
        <ele>248.1</ele>
        <time>2023-11-20T09:35:02Z</time>
      </trkpt>
      <trkpt lat="48.72691" lon="7.0337">
        <ele>248.1</ele>
        <time>2023-11-20T09:35:07Z</time>
      </trkpt>
      <trkpt lat="48.72686" lon="7.03337">
        <ele>248.1</ele>
        <time>2023-11-20T09:35:12Z</time>
      </trkpt>
      <trkpt lat="48.72683" lon="7.03324">
        <ele>248.1</ele>
        <time>2023-11-20T09:35:14Z</time>
      </trkpt>
      <trkpt lat="48.72677" lon="7.03297">
        <ele>248.1</ele>
        <time>2023-11-20T09:35:18Z</time>
      </trkpt>
      <trkpt lat="48.72672" lon="7.03277">
        <ele>248</ele>
        <time>2023-11-20T09:35:21Z</time>
      </trkpt>
      <trkpt lat="48.72667" lon="7.03249">
        <ele>248</ele>
        <time>2023-11-20T09:35:25Z</time>
      </trkpt>
      <trkpt lat="48.72668" lon="7.03235">
        <ele>248</ele>
        <time>2023-11-20T09:35:27Z</time>
      </trkpt>
      <trkpt lat="48.72675" lon="7.03217">
        <ele>248.1</ele>
        <time>2023-11-20T09:35:30Z</time>
      </trkpt>
      <trkpt lat="48.72693" lon="7.03198">
        <ele>248.2</ele>
        <time>2023-11-20T09:35:35Z</time>
      </trkpt>
      <trkpt lat="48.72711" lon="7.03184">
        <ele>248.3</ele>
        <time>2023-11-20T09:35:39Z</time>
      </trkpt>
      <trkpt lat="48.72727" lon="7.03169">
        <ele>248.3</ele>
        <time>2023-11-20T09:35:43Z</time>
      </trkpt>
      <trkpt lat="48.72733" lon="7.0316">
        <ele>248.3</ele>
        <time>2023-11-20T09:35:44Z</time>
      </trkpt>
      <trkpt lat="48.72735" lon="7.03154">
        <ele>248.3</ele>
        <time>2023-11-20T09:35:46Z</time>
      </trkpt>
      <trkpt lat="48.72736" lon="7.03142">
        <ele>248.3</ele>
        <time>2023-11-20T09:35:48Z</time>
      </trkpt>
      <trkpt lat="48.72731" lon="7.03118">
        <ele>248.2</ele>
        <time>2023-11-20T09:35:52Z</time>
      </trkpt>
      <trkpt lat="48.72722" lon="7.03092">
        <ele>248.2</ele>
        <time>2023-11-20T09:35:56Z</time>
      </trkpt>
      <trkpt lat="48.72714" lon="7.03067">
        <ele>248.1</ele>
        <time>2023-11-20T09:36:00Z</time>
      </trkpt>
      <trkpt lat="48.72708" lon="7.03041">
        <ele>248.1</ele>
        <time>2023-11-20T09:36:04Z</time>
      </trkpt>
      <trkpt lat="48.727" lon="7.03009">
        <ele>248.1</ele>
        <time>2023-11-20T09:36:09Z</time>
      </trkpt>
      <trkpt lat="48.72693" lon="7.02983">
        <ele>248.1</ele>
        <time>2023-11-20T09:36:13Z</time>
      </trkpt>
      <trkpt lat="48.72688" lon="7.02966">
        <ele>248.2</ele>
        <time>2023-11-20T09:36:16Z</time>
      </trkpt>
      <trkpt lat="48.72679" lon="7.02939">
        <ele>248.3</ele>
        <time>2023-11-20T09:36:21Z</time>
      </trkpt>
      <trkpt lat="48.72671" lon="7.02915">
        <ele>248.5</ele>
        <time>2023-11-20T09:36:25Z</time>
      </trkpt>
      <trkpt lat="48.72665" lon="7.02906">
        <ele>248.6</ele>
        <time>2023-11-20T09:36:27Z</time>
      </trkpt>
      <trkpt lat="48.72657" lon="7.02901">
        <ele>248.7</ele>
        <time>2023-11-20T09:36:30Z</time>
      </trkpt>
      <trkpt lat="48.72651" lon="7.02903">
        <ele>248.7</ele>
        <time>2023-11-20T09:36:32Z</time>
      </trkpt>
      <trkpt lat="48.72633" lon="7.02916">
        <ele>248.5</ele>
        <time>2023-11-20T09:36:37Z</time>
      </trkpt>
      <trkpt lat="48.72615" lon="7.02933">
        <ele>248.2</ele>
        <time>2023-11-20T09:36:42Z</time>
      </trkpt>
      <trkpt lat="48.72601" lon="7.02945">
        <ele>248.1</ele>
        <time>2023-11-20T09:36:46Z</time>
      </trkpt>
      <trkpt lat="48.72593" lon="7.02954">
        <ele>248.2</ele>
        <time>2023-11-20T09:36:49Z</time>
      </trkpt>
      <trkpt lat="48.72582" lon="7.02956">
        <ele>248.3</ele>
        <time>2023-11-20T09:36:52Z</time>
      </trkpt>
      <trkpt lat="48.72565" lon="7.02957">
        <ele>248.5</ele>
        <time>2023-11-20T09:36:56Z</time>
      </trkpt>
      <trkpt lat="48.72547" lon="7.02962">
        <ele>248.6</ele>
        <time>2023-11-20T09:37:01Z</time>
      </trkpt>
      <trkpt lat="48.72537" lon="7.02963">
        <ele>248.7</ele>
        <time>2023-11-20T09:37:04Z</time>
      </trkpt>
      <trkpt lat="48.72517" lon="7.02973">
        <ele>248.8</ele>
        <time>2023-11-20T09:37:09Z</time>
      </trkpt>
      <trkpt lat="48.72507" lon="7.02979">
        <ele>248.9</ele>
        <time>2023-11-20T09:37:12Z</time>
      </trkpt>
      <trkpt lat="48.7249" lon="7.02991">
        <ele>248.9</ele>
        <time>2023-11-20T09:37:17Z</time>
      </trkpt>
      <trkpt lat="48.72479" lon="7.03006">
        <ele>248.8</ele>
        <time>2023-11-20T09:37:21Z</time>
      </trkpt>
      <trkpt lat="48.72474" lon="7.03035">
        <ele>248.3</ele>
        <time>2023-11-20T09:37:25Z</time>
      </trkpt>
      <trkpt lat="48.72467" lon="7.03069">
        <ele>248</ele>
        <time>2023-11-20T09:37:29Z</time>
      </trkpt>
      <trkpt lat="48.7247" lon="7.03097">
        <ele>247.8</ele>
        <time>2023-11-20T09:37:33Z</time>
      </trkpt>
      <trkpt lat="48.7247" lon="7.03125">
        <ele>247.7</ele>
        <time>2023-11-20T09:37:37Z</time>
      </trkpt>
      <trkpt lat="48.72468" lon="7.03153">
        <ele>247.8</ele>
        <time>2023-11-20T09:37:41Z</time>
      </trkpt>
      <trkpt lat="48.72464" lon="7.0318">
        <ele>248</ele>
        <time>2023-11-20T09:37:45Z</time>
      </trkpt>
      <trkpt lat="48.72462" lon="7.03208">
        <ele>248.1</ele>
        <time>2023-11-20T09:37:49Z</time>
      </trkpt>
      <trkpt lat="48.72461" lon="7.0324">
        <ele>248.3</ele>
        <time>2023-11-20T09:37:54Z</time>
      </trkpt>
      <trkpt lat="48.72456" lon="7.03273">
        <ele>248.3</ele>
        <time>2023-11-20T09:37:59Z</time>
      </trkpt>
      <trkpt lat="48.72456" lon="7.03287">
        <ele>248.3</ele>
        <time>2023-11-20T09:38:00Z</time>
      </trkpt>
      <trkpt lat="48.72458" lon="7.03294">
        <ele>248.2</ele>
        <time>2023-11-20T09:38:02Z</time>
      </trkpt>
      <trkpt lat="48.72463" lon="7.03306">
        <ele>248.2</ele>
        <time>2023-11-20T09:38:04Z</time>
      </trkpt>
      <trkpt lat="48.72476" lon="7.03328">
        <ele>248.1</ele>
        <time>2023-11-20T09:38:08Z</time>
      </trkpt>
      <trkpt lat="48.72488" lon="7.03351">
        <ele>248.2</ele>
        <time>2023-11-20T09:38:12Z</time>
      </trkpt>
      <trkpt lat="48.72492" lon="7.0337">
        <ele>248.2</ele>
        <time>2023-11-20T09:38:15Z</time>
      </trkpt>
      <trkpt lat="48.72496" lon="7.03396">
        <ele>248.1</ele>
        <time>2023-11-20T09:38:19Z</time>
      </trkpt>
      <trkpt lat="48.72504" lon="7.03427">
        <ele>248</ele>
        <time>2023-11-20T09:38:24Z</time>
      </trkpt>
      <trkpt lat="48.72514" lon="7.03452">
        <ele>247.9</ele>
        <time>2023-11-20T09:38:28Z</time>
      </trkpt>
      <trkpt lat="48.72524" lon="7.03477">
        <ele>247.7</ele>
        <time>2023-11-20T09:38:32Z</time>
      </trkpt>
      <trkpt lat="48.72532" lon="7.03495">
        <ele>247.7</ele>
        <time>2023-11-20T09:38:35Z</time>
      </trkpt>
      <trkpt lat="48.72539" lon="7.03519">
        <ele>247.7</ele>
        <time>2023-11-20T09:38:39Z</time>
      </trkpt>
      <trkpt lat="48.72546" lon="7.03545">
        <ele>247.7</ele>
        <time>2023-11-20T09:38:43Z</time>
      </trkpt>
      <trkpt lat="48.72553" lon="7.03571">
        <ele>247.8</ele>
        <time>2023-11-20T09:38:47Z</time>
      </trkpt>
      <trkpt lat="48.7255" lon="7.03592">
        <ele>247.9</ele>
        <time>2023-11-20T09:38:50Z</time>
      </trkpt>
      <trkpt lat="48.72547" lon="7.03612">
        <ele>248</ele>
        <time>2023-11-20T09:38:53Z</time>
      </trkpt>
      <trkpt lat="48.7255" lon="7.03632">
        <ele>248.1</ele>
        <time>2023-11-20T09:38:56Z</time>
      </trkpt>
      <trkpt lat="48.72561" lon="7.03654">
        <ele>248</ele>
        <time>2023-11-20T09:39:00Z</time>
      </trkpt>
      <trkpt lat="48.72575" lon="7.03679">
        <ele>247.9</ele>
        <time>2023-11-20T09:39:05Z</time>
      </trkpt>
      <trkpt lat="48.72577" lon="7.03693">
        <ele>247.9</ele>
        <time>2023-11-20T09:39:07Z</time>
      </trkpt>
      <trkpt lat="48.72577" lon="7.03706">
        <ele>247.9</ele>
        <time>2023-11-20T09:39:09Z</time>
      </trkpt>
      <trkpt lat="48.72574" lon="7.03738">
        <ele>248</ele>
        <time>2023-11-20T09:39:14Z</time>
      </trkpt>
      <trkpt lat="48.72574" lon="7.03752">
        <ele>248</ele>
        <time>2023-11-20T09:39:15Z</time>
      </trkpt>
      <trkpt lat="48.72575" lon="7.03779">
        <ele>248.1</ele>
        <time>2023-11-20T09:39:20Z</time>
      </trkpt>
      <trkpt lat="48.72581" lon="7.03805">
        <ele>248.1</ele>
        <time>2023-11-20T09:39:24Z</time>
      </trkpt>
      <trkpt lat="48.7259" lon="7.0383">
        <ele>248</ele>
        <time>2023-11-20T09:39:28Z</time>
      </trkpt>
      <trkpt lat="48.72596" lon="7.03842">
        <ele>247.9</ele>
        <time>2023-11-20T09:39:29Z</time>
      </trkpt>
      <trkpt lat="48.72611" lon="7.03859">
        <ele>247.7</ele>
        <time>2023-11-20T09:39:34Z</time>
      </trkpt>
      <trkpt lat="48.72628" lon="7.03871">
        <ele>247.5</ele>
        <time>2023-11-20T09:39:38Z</time>
      </trkpt>
      <trkpt lat="48.72645" lon="7.03881">
        <ele>247.3</ele>
        <time>2023-11-20T09:39:42Z</time>
      </trkpt>
      <trkpt lat="48.72655" lon="7.03894">
        <ele>247.2</ele>
        <time>2023-11-20T09:39:45Z</time>
      </trkpt>
      <trkpt lat="48.72668" lon="7.03922">
        <ele>247.1</ele>
        <time>2023-11-20T09:39:50Z</time>
      </trkpt>
      <trkpt lat="48.72677" lon="7.03947">
        <ele>247.2</ele>
        <time>2023-11-20T09:39:54Z</time>
      </trkpt>
      <trkpt lat="48.72683" lon="7.03958">
        <ele>247.2</ele>
        <time>2023-11-20T09:39:55Z</time>
      </trkpt>
      <trkpt lat="48.72686" lon="7.03963">
        <ele>247.2</ele>
        <time>2023-11-20T09:39:57Z</time>
      </trkpt>
      <trkpt lat="48.727" lon="7.03982">
        <ele>247.2</ele>
        <time>2023-11-20T09:40:01Z</time>
      </trkpt>
      <trkpt lat="48.72715" lon="7.04">
        <ele>247.1</ele>
        <time>2023-11-20T09:40:05Z</time>
      </trkpt>
      <trkpt lat="48.7273" lon="7.04012">
        <ele>247.1</ele>
        <time>2023-11-20T09:40:09Z</time>
      </trkpt>
      <trkpt lat="48.72738" lon="7.04015">
        <ele>247.1</ele>
        <time>2023-11-20T09:40:11Z</time>
      </trkpt>
      <trkpt lat="48.72751" lon="7.04012">
        <ele>247.1</ele>
        <time>2023-11-20T09:40:14Z</time>
      </trkpt>
      <trkpt lat="48.72771" lon="7.03997">
        <ele>247.1</ele>
        <time>2023-11-20T09:40:19Z</time>
      </trkpt>
      <trkpt lat="48.72791" lon="7.03985">
        <ele>247.3</ele>
        <time>2023-11-20T09:40:24Z</time>
      </trkpt>
      <trkpt lat="48.72812" lon="7.03974">
        <ele>247.3</ele>
        <time>2023-11-20T09:40:29Z</time>
      </trkpt>
      <trkpt lat="48.72832" lon="7.0396">
        <ele>247.2</ele>
        <time>2023-11-20T09:40:34Z</time>
      </trkpt>
      <trkpt lat="48.72836" lon="7.03956">
        <ele>247.2</ele>
        <time>2023-11-20T09:40:35Z</time>
      </trkpt>
      <trkpt lat="48.7284" lon="7.03946">
        <ele>247.2</ele>
        <time>2023-11-20T09:40:37Z</time>
      </trkpt>
      <trkpt lat="48.72837" lon="7.03932">
        <ele>247.2</ele>
        <time>2023-11-20T09:40:39Z</time>
      </trkpt>
      <trkpt lat="48.72826" lon="7.03911">
        <ele>247.1</ele>
        <time>2023-11-20T09:40:43Z</time>
      </trkpt>
      <trkpt lat="48.72811" lon="7.03888">
        <ele>247.1</ele>
        <time>2023-11-20T09:40:48Z</time>
      </trkpt>
      <trkpt lat="48.72796" lon="7.03865">
        <ele>247.2</ele>
        <time>2023-11-20T09:40:53Z</time>
      </trkpt>
      <trkpt lat="48.72791" lon="7.03853">
        <ele>247.2</ele>
        <time>2023-11-20T09:40:55Z</time>
      </trkpt>
      <trkpt lat="48.72787" lon="7.03834">
        <ele>247.3</ele>
        <time>2023-11-20T09:40:58Z</time>
      </trkpt>
      <trkpt lat="48.72786" lon="7.03807">
        <ele>247.4</ele>
        <time>2023-11-20T09:41:02Z</time>
      </trkpt>
      <trkpt lat="48.72793" lon="7.03783">
        <ele>247.5</ele>
        <time>2023-11-20T09:41:06Z</time>
      </trkpt>
      <trkpt lat="48.72798" lon="7.03773">
        <ele>247.6</ele>
        <time>2023-11-20T09:41:08Z</time>
      </trkpt>
      <trkpt lat="48.72814" lon="7.0375">
        <ele>247.9</ele>
        <time>2023-11-20T09:41:13Z</time>
      </trkpt>
      <trkpt lat="48.72823" lon="7.03737">
        <ele>248.1</ele>
        <time>2023-11-20T09:41:16Z</time>
      </trkpt>
      <trkpt lat="48.72828" lon="7.03721">
        <ele>248.2</ele>
        <time>2023-11-20T09:41:19Z</time>
      </trkpt>
      <trkpt lat="48.72827" lon="7.03708">
        <ele>248.2</ele>
        <time>2023-11-20T09:41:21Z</time>
      </trkpt>
      <trkpt lat="48.72818" lon="7.03683">
        <ele>248.3</ele>
        <time>2023-11-20T09:41:25Z</time>
      </trkpt>
      <trkpt lat="48.72809" lon="7.03657">
        <ele>248.2</ele>
        <time>2023-11-20T09:41:29Z</time>
      </trkpt>
      <trkpt lat="48.72801" lon="7.03631">
        <ele>248.2</ele>
        <time>2023-11-20T09:41:33Z</time>
      </trkpt>
      <trkpt lat="48.72794" lon="7.03605">
        <ele>248.1</ele>
        <time>2023-11-20T09:41:37Z</time>
      </trkpt>
      <trkpt lat="48.72786" lon="7.03574">
        <ele>247.9</ele>
        <time>2023-11-20T09:41:42Z</time>
      </trkpt>
      <trkpt lat="48.72775" lon="7.03545">
        <ele>247.9</ele>
        <time>2023-11-20T09:41:47Z</time>
      </trkpt>
      <trkpt lat="48.72763" lon="7.03522">
        <ele>247.9</ele>
        <time>2023-11-20T09:41:53Z</time>
      </trkpt>
      <trkpt lat="48.72761" lon="7.03522">
        <ele>247.9</ele>
        <time>2023-11-20T09:41:56Z</time>
      </trkpt>
      <trkpt lat="48.72773" lon="7.03546">
        <ele>247.9</ele>
        <time>2023-11-20T09:42:06Z</time>
      </trkpt>
      <trkpt lat="48.72782" lon="7.03573">
        <ele>247.9</ele>
        <time>2023-11-20T09:42:16Z</time>
      </trkpt>
      <trkpt lat="48.7279" lon="7.036">
        <ele>248.1</ele>
        <time>2023-11-20T09:42:26Z</time>
      </trkpt>
      <trkpt lat="48.72799" lon="7.03628">
        <ele>248.1</ele>
        <time>2023-11-20T09:42:35Z</time>
      </trkpt>
      <trkpt lat="48.72806" lon="7.03657">
        <ele>248.2</ele>
        <time>2023-11-20T09:42:44Z</time>
      </trkpt>
      <trkpt lat="48.72813" lon="7.03672">
        <ele>248.3</ele>
        <time>2023-11-20T09:42:47Z</time>
      </trkpt>
      <trkpt lat="48.72822" lon="7.03695">
        <ele>248.3</ele>
        <time>2023-11-20T09:42:51Z</time>
      </trkpt>
      <trkpt lat="48.72826" lon="7.03708">
        <ele>248.2</ele>
        <time>2023-11-20T09:42:53Z</time>
      </trkpt>
      <trkpt lat="48.72827" lon="7.03722">
        <ele>248.2</ele>
        <time>2023-11-20T09:42:55Z</time>
      </trkpt>
      <trkpt lat="48.72824" lon="7.03734">
        <ele>248.1</ele>
        <time>2023-11-20T09:42:57Z</time>
      </trkpt>
      <trkpt lat="48.7282" lon="7.03744">
        <ele>248</ele>
        <time>2023-11-20T09:42:59Z</time>
      </trkpt>
      <trkpt lat="48.72806" lon="7.03766">
        <ele>247.7</ele>
        <time>2023-11-20T09:43:03Z</time>
      </trkpt>
      <trkpt lat="48.72791" lon="7.03791">
        <ele>247.5</ele>
        <time>2023-11-20T09:43:07Z</time>
      </trkpt>
      <trkpt lat="48.72785" lon="7.0381">
        <ele>247.4</ele>
        <time>2023-11-20T09:43:10Z</time>
      </trkpt>
      <trkpt lat="48.72783" lon="7.03823">
        <ele>247.3</ele>
        <time>2023-11-20T09:43:12Z</time>
      </trkpt>
      <trkpt lat="48.72784" lon="7.03837">
        <ele>247.3</ele>
        <time>2023-11-20T09:43:14Z</time>
      </trkpt>
      <trkpt lat="48.72789" lon="7.03863">
        <ele>247.2</ele>
        <time>2023-11-20T09:43:18Z</time>
      </trkpt>
      <trkpt lat="48.72804" lon="7.03885">
        <ele>247.1</ele>
        <time>2023-11-20T09:43:22Z</time>
      </trkpt>
      <trkpt lat="48.72818" lon="7.03905">
        <ele>247.1</ele>
        <time>2023-11-20T09:43:26Z</time>
      </trkpt>
      <trkpt lat="48.72832" lon="7.03924">
        <ele>247.2</ele>
        <time>2023-11-20T09:43:30Z</time>
      </trkpt>
      <trkpt lat="48.72835" lon="7.0393">
        <ele>247.2</ele>
        <time>2023-11-20T09:43:31Z</time>
      </trkpt>
      <trkpt lat="48.72837" lon="7.03944">
        <ele>247.2</ele>
        <time>2023-11-20T09:43:33Z</time>
      </trkpt>
      <trkpt lat="48.72829" lon="7.03959">
        <ele>247.2</ele>
        <time>2023-11-20T09:43:36Z</time>
      </trkpt>
      <trkpt lat="48.7281" lon="7.03973">
        <ele>247.3</ele>
        <time>2023-11-20T09:43:41Z</time>
      </trkpt>
      <trkpt lat="48.72792" lon="7.03985">
        <ele>247.3</ele>
        <time>2023-11-20T09:43:46Z</time>
      </trkpt>
      <trkpt lat="48.72771" lon="7.04">
        <ele>247.1</ele>
        <time>2023-11-20T09:43:51Z</time>
      </trkpt>
      <trkpt lat="48.72754" lon="7.04013">
        <ele>247.1</ele>
        <time>2023-11-20T09:43:55Z</time>
      </trkpt>
      <trkpt lat="48.72746" lon="7.04017">
        <ele>247.1</ele>
        <time>2023-11-20T09:43:57Z</time>
      </trkpt>
      <trkpt lat="48.72737" lon="7.04017">
        <ele>247.1</ele>
        <time>2023-11-20T09:43:59Z</time>
      </trkpt>
      <trkpt lat="48.72729" lon="7.04013">
        <ele>247.1</ele>
        <time>2023-11-20T09:44:01Z</time>
      </trkpt>
      <trkpt lat="48.72712" lon="7.04002">
        <ele>247.1</ele>
        <time>2023-11-20T09:44:05Z</time>
      </trkpt>
      <trkpt lat="48.72697" lon="7.03986">
        <ele>247.2</ele>
        <time>2023-11-20T09:44:09Z</time>
      </trkpt>
      <trkpt lat="48.7268" lon="7.03965">
        <ele>247.2</ele>
        <time>2023-11-20T09:44:14Z</time>
      </trkpt>
      <trkpt lat="48.72676" lon="7.0396">
        <ele>247.2</ele>
        <time>2023-11-20T09:44:15Z</time>
      </trkpt>
      <trkpt lat="48.72664" lon="7.03936">
        <ele>247.1</ele>
        <time>2023-11-20T09:44:19Z</time>
      </trkpt>
      <trkpt lat="48.72652" lon="7.03912">
        <ele>247.1</ele>
        <time>2023-11-20T09:44:23Z</time>
      </trkpt>
      <trkpt lat="48.72641" lon="7.0389">
        <ele>247.3</ele>
        <time>2023-11-20T09:44:27Z</time>
      </trkpt>
      <trkpt lat="48.72637" lon="7.03886">
        <ele>247.3</ele>
        <time>2023-11-20T09:44:28Z</time>
      </trkpt>
      <trkpt lat="48.72626" lon="7.03877">
        <ele>247.5</ele>
        <time>2023-11-20T09:44:31Z</time>
      </trkpt>
      <trkpt lat="48.72614" lon="7.03869">
        <ele>247.6</ele>
        <time>2023-11-20T09:44:34Z</time>
      </trkpt>
      <trkpt lat="48.72596" lon="7.0385">
        <ele>247.8</ele>
        <time>2023-11-20T09:44:39Z</time>
      </trkpt>
      <trkpt lat="48.72583" lon="7.0383">
        <ele>248</ele>
        <time>2023-11-20T09:44:43Z</time>
      </trkpt>
      <trkpt lat="48.72574" lon="7.03803">
        <ele>248.1</ele>
        <time>2023-11-20T09:44:47Z</time>
      </trkpt>
      <trkpt lat="48.72568" lon="7.03775">
        <ele>248.1</ele>
        <time>2023-11-20T09:44:51Z</time>
      </trkpt>
      <trkpt lat="48.72568" lon="7.03768">
        <ele>248.1</ele>
        <time>2023-11-20T09:44:52Z</time>
      </trkpt>
      <trkpt lat="48.72567" lon="7.03739">
        <ele>248</ele>
        <time>2023-11-20T09:44:56Z</time>
      </trkpt>
      <trkpt lat="48.72568" lon="7.03711">
        <ele>247.9</ele>
        <time>2023-11-20T09:45:00Z</time>
      </trkpt>
      <trkpt lat="48.7257" lon="7.03679">
        <ele>247.9</ele>
        <time>2023-11-20T09:45:05Z</time>
      </trkpt>
      <trkpt lat="48.72567" lon="7.03667">
        <ele>247.9</ele>
        <time>2023-11-20T09:45:07Z</time>
      </trkpt>
      <trkpt lat="48.7256" lon="7.03651">
        <ele>248</ele>
        <time>2023-11-20T09:45:10Z</time>
      </trkpt>
      <trkpt lat="48.72546" lon="7.03628">
        <ele>248.1</ele>
        <time>2023-11-20T09:45:15Z</time>
      </trkpt>
      <trkpt lat="48.72542" lon="7.03617">
        <ele>248</ele>
        <time>2023-11-20T09:45:17Z</time>
      </trkpt>
      <trkpt lat="48.72541" lon="7.03604">
        <ele>247.9</ele>
        <time>2023-11-20T09:45:19Z</time>
      </trkpt>
      <trkpt lat="48.72543" lon="7.03583">
        <ele>247.8</ele>
        <time>2023-11-20T09:45:22Z</time>
      </trkpt>
      <trkpt lat="48.72547" lon="7.03556">
        <ele>247.7</ele>
        <time>2023-11-20T09:45:26Z</time>
      </trkpt>
      <trkpt lat="48.72544" lon="7.03544">
        <ele>247.7</ele>
        <time>2023-11-20T09:45:28Z</time>
      </trkpt>
      <trkpt lat="48.72536" lon="7.0352">
        <ele>247.7</ele>
        <time>2023-11-20T09:45:32Z</time>
      </trkpt>
      <trkpt lat="48.72528" lon="7.03489">
        <ele>247.7</ele>
        <time>2023-11-20T09:45:37Z</time>
      </trkpt>
      <trkpt lat="48.72526" lon="7.03483">
        <ele>247.7</ele>
        <time>2023-11-20T09:45:38Z</time>
      </trkpt>
      <trkpt lat="48.72519" lon="7.03468">
        <ele>247.8</ele>
        <time>2023-11-20T09:45:41Z</time>
      </trkpt>
      <trkpt lat="48.72508" lon="7.03441">
        <ele>247.9</ele>
        <time>2023-11-20T09:45:46Z</time>
      </trkpt>
      <trkpt lat="48.72497" lon="7.03414">
        <ele>248</ele>
        <time>2023-11-20T09:45:51Z</time>
      </trkpt>
      <trkpt lat="48.72489" lon="7.03385">
        <ele>248.1</ele>
        <time>2023-11-20T09:45:56Z</time>
      </trkpt>
      <trkpt lat="48.72484" lon="7.03359">
        <ele>248.2</ele>
        <time>2023-11-20T09:46:00Z</time>
      </trkpt>
      <trkpt lat="48.7248" lon="7.03347">
        <ele>248.2</ele>
        <time>2023-11-20T09:46:02Z</time>
      </trkpt>
      <trkpt lat="48.72468" lon="7.03319">
        <ele>248.1</ele>
        <time>2023-11-20T09:46:07Z</time>
      </trkpt>
      <trkpt lat="48.7246" lon="7.03302">
        <ele>248.2</ele>
        <time>2023-11-20T09:46:10Z</time>
      </trkpt>
      <trkpt lat="48.72458" lon="7.03289">
        <ele>248.2</ele>
        <time>2023-11-20T09:46:12Z</time>
      </trkpt>
      <trkpt lat="48.72458" lon="7.03274">
        <ele>248.3</ele>
        <time>2023-11-20T09:46:14Z</time>
      </trkpt>
      <trkpt lat="48.72459" lon="7.03259">
        <ele>248.3</ele>
        <time>2023-11-20T09:46:16Z</time>
      </trkpt>
      <trkpt lat="48.72461" lon="7.03232">
        <ele>248.3</ele>
        <time>2023-11-20T09:46:20Z</time>
      </trkpt>
      <trkpt lat="48.7246" lon="7.03212">
        <ele>248.2</ele>
        <time>2023-11-20T09:46:23Z</time>
      </trkpt>
      <trkpt lat="48.72457" lon="7.03183">
        <ele>248.1</ele>
        <time>2023-11-20T09:46:27Z</time>
      </trkpt>
      <trkpt lat="48.72459" lon="7.03168">
        <ele>248</ele>
        <time>2023-11-20T09:46:29Z</time>
      </trkpt>
      <trkpt lat="48.72462" lon="7.03141">
        <ele>247.9</ele>
        <time>2023-11-20T09:46:33Z</time>
      </trkpt>
      <trkpt lat="48.72462" lon="7.03126">
        <ele>247.8</ele>
        <time>2023-11-20T09:46:35Z</time>
      </trkpt>
      <trkpt lat="48.72455" lon="7.03095">
        <ele>247.7</ele>
        <time>2023-11-20T09:46:40Z</time>
      </trkpt>
      <trkpt lat="48.7245" lon="7.03068">
        <ele>247.9</ele>
        <time>2023-11-20T09:46:44Z</time>
      </trkpt>
      <trkpt lat="48.72448" lon="7.03035">
        <ele>248.1</ele>
        <time>2023-11-20T09:46:49Z</time>
      </trkpt>
      <trkpt lat="48.72447" lon="7.03018">
        <ele>248.3</ele>
        <time>2023-11-20T09:46:52Z</time>
      </trkpt>
      <trkpt lat="48.72451" lon="7.03009">
        <ele>248.3</ele>
        <time>2023-11-20T09:46:54Z</time>
      </trkpt>
      <trkpt lat="48.72468" lon="7.02996">
        <ele>248.7</ele>
        <time>2023-11-20T09:46:59Z</time>
      </trkpt>
      <trkpt lat="48.7249" lon="7.02989">
        <ele>248.9</ele>
        <time>2023-11-20T09:47:04Z</time>
      </trkpt>
      <trkpt lat="48.72511" lon="7.02982">
        <ele>248.9</ele>
        <time>2023-11-20T09:47:09Z</time>
      </trkpt>
      <trkpt lat="48.72532" lon="7.02973">
        <ele>248.7</ele>
        <time>2023-11-20T09:47:14Z</time>
      </trkpt>
      <trkpt lat="48.72537" lon="7.02969">
        <ele>248.6</ele>
        <time>2023-11-20T09:47:15Z</time>
      </trkpt>
      <trkpt lat="48.72549" lon="7.02962">
        <ele>248.6</ele>
        <time>2023-11-20T09:47:18Z</time>
      </trkpt>
      <trkpt lat="48.7256" lon="7.02962">
        <ele>248.5</ele>
        <time>2023-11-20T09:47:20Z</time>
      </trkpt>
      <trkpt lat="48.72575" lon="7.02961">
        <ele>248.4</ele>
        <time>2023-11-20T09:47:23Z</time>
      </trkpt>
      <trkpt lat="48.72584" lon="7.02957">
        <ele>248.2</ele>
        <time>2023-11-20T09:47:25Z</time>
      </trkpt>
      <trkpt lat="48.72601" lon="7.02947">
        <ele>248.1</ele>
        <time>2023-11-20T09:47:29Z</time>
      </trkpt>
      <trkpt lat="48.72618" lon="7.02932">
        <ele>248.3</ele>
        <time>2023-11-20T09:47:34Z</time>
      </trkpt>
      <trkpt lat="48.72635" lon="7.02916">
        <ele>248.5</ele>
        <time>2023-11-20T09:47:39Z</time>
      </trkpt>
      <trkpt lat="48.72655" lon="7.02902">
        <ele>248.7</ele>
        <time>2023-11-20T09:47:44Z</time>
      </trkpt>
      <trkpt lat="48.72664" lon="7.02901">
        <ele>248.7</ele>
        <time>2023-11-20T09:47:46Z</time>
      </trkpt>
      <trkpt lat="48.72673" lon="7.0291">
        <ele>248.5</ele>
        <time>2023-11-20T09:47:49Z</time>
      </trkpt>
      <trkpt lat="48.72679" lon="7.02926">
        <ele>248.4</ele>
        <time>2023-11-20T09:47:52Z</time>
      </trkpt>
      <trkpt lat="48.72688" lon="7.02955">
        <ele>248.2</ele>
        <time>2023-11-20T09:47:57Z</time>
      </trkpt>
      <trkpt lat="48.72696" lon="7.02983">
        <ele>248.1</ele>
        <time>2023-11-20T09:48:01Z</time>
      </trkpt>
      <trkpt lat="48.72704" lon="7.03009">
        <ele>248.1</ele>
        <time>2023-11-20T09:48:05Z</time>
      </trkpt>
      <trkpt lat="48.72712" lon="7.03036">
        <ele>248.1</ele>
        <time>2023-11-20T09:48:09Z</time>
      </trkpt>
      <trkpt lat="48.72718" lon="7.03063">
        <ele>248.1</ele>
        <time>2023-11-20T09:48:13Z</time>
      </trkpt>
      <trkpt lat="48.72722" lon="7.03081">
        <ele>248.1</ele>
        <time>2023-11-20T09:48:16Z</time>
      </trkpt>
      <trkpt lat="48.72731" lon="7.03111">
        <ele>248.2</ele>
        <time>2023-11-20T09:48:21Z</time>
      </trkpt>
      <trkpt lat="48.72735" lon="7.03123">
        <ele>248.2</ele>
        <time>2023-11-20T09:48:23Z</time>
      </trkpt>
      <trkpt lat="48.72737" lon="7.03156">
        <ele>248.3</ele>
        <time>2023-11-20T09:48:28Z</time>
      </trkpt>
      <trkpt lat="48.72735" lon="7.03168">
        <ele>248.3</ele>
        <time>2023-11-20T09:48:30Z</time>
      </trkpt>
      <trkpt lat="48.72721" lon="7.03189">
        <ele>248.3</ele>
        <time>2023-11-20T09:48:35Z</time>
      </trkpt>
      <trkpt lat="48.72715" lon="7.03196">
        <ele>248.3</ele>
        <time>2023-11-20T09:48:37Z</time>
      </trkpt>
      <trkpt lat="48.72696" lon="7.03213">
        <ele>248.2</ele>
        <time>2023-11-20T09:48:42Z</time>
      </trkpt>
      <trkpt lat="48.72679" lon="7.03233">
        <ele>248.1</ele>
        <time>2023-11-20T09:48:47Z</time>
      </trkpt>
      <trkpt lat="48.72676" lon="7.03239">
        <ele>248</ele>
        <time>2023-11-20T09:48:48Z</time>
      </trkpt>
      <trkpt lat="48.72672" lon="7.03258">
        <ele>248</ele>
        <time>2023-11-20T09:48:51Z</time>
      </trkpt>
      <trkpt lat="48.72678" lon="7.0329">
        <ele>248.1</ele>
        <time>2023-11-20T09:48:56Z</time>
      </trkpt>
      <trkpt lat="48.72683" lon="7.03316">
        <ele>248.1</ele>
        <time>2023-11-20T09:49:00Z</time>
      </trkpt>
      <trkpt lat="48.7269" lon="7.03342">
        <ele>248.1</ele>
        <time>2023-11-20T09:49:04Z</time>
      </trkpt>
      <trkpt lat="48.72697" lon="7.03368">
        <ele>248.1</ele>
        <time>2023-11-20T09:49:08Z</time>
      </trkpt>
      <trkpt lat="48.72701" lon="7.0338">
        <ele>248.1</ele>
        <time>2023-11-20T09:49:10Z</time>
      </trkpt>
      <trkpt lat="48.72706" lon="7.03407">
        <ele>248.1</ele>
        <time>2023-11-20T09:49:14Z</time>
      </trkpt>
      <trkpt lat="48.72709" lon="7.03428">
        <ele>248.1</ele>
        <time>2023-11-20T09:49:17Z</time>
      </trkpt>
      <trkpt lat="48.72712" lon="7.03441">
        <ele>248</ele>
        <time>2023-11-20T09:49:19Z</time>
      </trkpt>
      <trkpt lat="48.72721" lon="7.03465">
        <ele>248</ele>
        <time>2023-11-20T09:49:23Z</time>
      </trkpt>
      <trkpt lat="48.72731" lon="7.0348">
        <ele>248</ele>
        <time>2023-11-20T09:49:26Z</time>
      </trkpt>
      <trkpt lat="48.72746" lon="7.03497">
        <ele>248</ele>
        <time>2023-11-20T09:49:30Z</time>
      </trkpt>
      <trkpt lat="48.7276" lon="7.03513">
        <ele>247.9</ele>
        <time>2023-11-20T09:49:34Z</time>
      </trkpt>
      <trkpt lat="48.72776" lon="7.03537">
        <ele>247.9</ele>
        <time>2023-11-20T09:49:39Z</time>
      </trkpt>
      <trkpt lat="48.72787" lon="7.0356">
        <ele>247.9</ele>
        <time>2023-11-20T09:49:43Z</time>
      </trkpt>
      <trkpt lat="48.72789" lon="7.03566">
        <ele>247.9</ele>
        <time>2023-11-20T09:49:44Z</time>
      </trkpt>
      <trkpt lat="48.72795" lon="7.03592">
        <ele>248</ele>
        <time>2023-11-20T09:49:48Z</time>
      </trkpt>
      <trkpt lat="48.72801" lon="7.03623">
        <ele>248.1</ele>
        <time>2023-11-20T09:49:53Z</time>
      </trkpt>
      <trkpt lat="48.72807" lon="7.03648">
        <ele>248.2</ele>
        <time>2023-11-20T09:49:57Z</time>
      </trkpt>
      <trkpt lat="48.72815" lon="7.03673">
        <ele>248.3</ele>
        <time>2023-11-20T09:50:01Z</time>
      </trkpt>
      <trkpt lat="48.72824" lon="7.03697">
        <ele>248.3</ele>
        <time>2023-11-20T09:50:05Z</time>
      </trkpt>
      <trkpt lat="48.72827" lon="7.0371">
        <ele>248.2</ele>
        <time>2023-11-20T09:50:07Z</time>
      </trkpt>
      <trkpt lat="48.72828" lon="7.03724">
        <ele>248.2</ele>
        <time>2023-11-20T09:50:09Z</time>
      </trkpt>
      <trkpt lat="48.72826" lon="7.03736">
        <ele>248.1</ele>
        <time>2023-11-20T09:50:11Z</time>
      </trkpt>
      <trkpt lat="48.72821" lon="7.03746">
        <ele>248</ele>
        <time>2023-11-20T09:50:13Z</time>
      </trkpt>
      <trkpt lat="48.72815" lon="7.03755">
        <ele>247.9</ele>
        <time>2023-11-20T09:50:15Z</time>
      </trkpt>
      <trkpt lat="48.728" lon="7.03777">
        <ele>247.6</ele>
        <time>2023-11-20T09:50:19Z</time>
      </trkpt>
      <trkpt lat="48.72789" lon="7.038">
        <ele>247.4</ele>
        <time>2023-11-20T09:50:23Z</time>
      </trkpt>
      <trkpt lat="48.72787" lon="7.03813">
        <ele>247.4</ele>
        <time>2023-11-20T09:50:25Z</time>
      </trkpt>
      <trkpt lat="48.72788" lon="7.03846">
        <ele>247.2</ele>
        <time>2023-11-20T09:50:30Z</time>
      </trkpt>
      <trkpt lat="48.7279" lon="7.03859">
        <ele>247.2</ele>
        <time>2023-11-20T09:50:32Z</time>
      </trkpt>
      <trkpt lat="48.72795" lon="7.0387">
        <ele>247.2</ele>
        <time>2023-11-20T09:50:34Z</time>
      </trkpt>
      <trkpt lat="48.72812" lon="7.03892">
        <ele>247.1</ele>
        <time>2023-11-20T09:50:39Z</time>
      </trkpt>
      <trkpt lat="48.72826" lon="7.03911">
        <ele>247.1</ele>
        <time>2023-11-20T09:50:43Z</time>
      </trkpt>
      <trkpt lat="48.72835" lon="7.03925">
        <ele>247.2</ele>
        <time>2023-11-20T09:50:46Z</time>
      </trkpt>
      <trkpt lat="48.72838" lon="7.03938">
        <ele>247.2</ele>
        <time>2023-11-20T09:50:48Z</time>
      </trkpt>
      <trkpt lat="48.72836" lon="7.03951">
        <ele>247.2</ele>
        <time>2023-11-20T09:50:50Z</time>
      </trkpt>
      <trkpt lat="48.72829" lon="7.03959">
        <ele>247.2</ele>
        <time>2023-11-20T09:50:52Z</time>
      </trkpt>
      <trkpt lat="48.7281" lon="7.03973">
        <ele>247.3</ele>
        <time>2023-11-20T09:50:57Z</time>
      </trkpt>
      <trkpt lat="48.7279" lon="7.03985">
        <ele>247.3</ele>
        <time>2023-11-20T09:51:02Z</time>
      </trkpt>
      <trkpt lat="48.7277" lon="7.03999">
        <ele>247.1</ele>
        <time>2023-11-20T09:51:07Z</time>
      </trkpt>
      <trkpt lat="48.72754" lon="7.04013">
        <ele>247.1</ele>
        <time>2023-11-20T09:51:11Z</time>
      </trkpt>
      <trkpt lat="48.7275" lon="7.04015">
        <ele>247.1</ele>
        <time>2023-11-20T09:51:12Z</time>
      </trkpt>
      <trkpt lat="48.72742" lon="7.04017">
        <ele>247.1</ele>
        <time>2023-11-20T09:51:14Z</time>
      </trkpt>
      <trkpt lat="48.72733" lon="7.04016">
        <ele>247.1</ele>
        <time>2023-11-20T09:51:16Z</time>
      </trkpt>
      <trkpt lat="48.72724" lon="7.04011">
        <ele>247.1</ele>
        <time>2023-11-20T09:51:18Z</time>
      </trkpt>
      <trkpt lat="48.72717" lon="7.04005">
        <ele>247.1</ele>
        <time>2023-11-20T09:51:20Z</time>
      </trkpt>
      <trkpt lat="48.72699" lon="7.03987">
        <ele>247.2</ele>
        <time>2023-11-20T09:51:25Z</time>
      </trkpt>
      <trkpt lat="48.72683" lon="7.03974">
        <ele>247.2</ele>
        <time>2023-11-20T09:51:29Z</time>
      </trkpt>
      <trkpt lat="48.72677" lon="7.03964">
        <ele>247.2</ele>
        <time>2023-11-20T09:51:31Z</time>
      </trkpt>
      <trkpt lat="48.72664" lon="7.03941">
        <ele>247.2</ele>
        <time>2023-11-20T09:51:35Z</time>
      </trkpt>
      <trkpt lat="48.72654" lon="7.03919">
        <ele>247.1</ele>
        <time>2023-11-20T09:51:39Z</time>
      </trkpt>
      <trkpt lat="48.72641" lon="7.03893">
        <ele>247.3</ele>
        <time>2023-11-20T09:51:44Z</time>
      </trkpt>
      <trkpt lat="48.72639" lon="7.03889">
        <ele>247.3</ele>
        <time>2023-11-20T09:51:45Z</time>
      </trkpt>
      <trkpt lat="48.72632" lon="7.03882">
        <ele>247.4</ele>
        <time>2023-11-20T09:51:47Z</time>
      </trkpt>
      <trkpt lat="48.72613" lon="7.03868">
        <ele>247.6</ele>
        <time>2023-11-20T09:51:52Z</time>
      </trkpt>
      <trkpt lat="48.72595" lon="7.0385">
        <ele>247.8</ele>
        <time>2023-11-20T09:51:57Z</time>
      </trkpt>
      <trkpt lat="48.72586" lon="7.03835">
        <ele>248</ele>
        <time>2023-11-20T09:52:00Z</time>
      </trkpt>
      <trkpt lat="48.72578" lon="7.03804">
        <ele>248.1</ele>
        <time>2023-11-20T09:52:05Z</time>
      </trkpt>
      <trkpt lat="48.72573" lon="7.03777">
        <ele>248.1</ele>
        <time>2023-11-20T09:52:09Z</time>
      </trkpt>
      <trkpt lat="48.72571" lon="7.0375">
        <ele>248</ele>
        <time>2023-11-20T09:52:13Z</time>
      </trkpt>
      <trkpt lat="48.72572" lon="7.03743">
        <ele>248</ele>
        <time>2023-11-20T09:52:14Z</time>
      </trkpt>
      <trkpt lat="48.72573" lon="7.03714">
        <ele>247.9</ele>
        <time>2023-11-20T09:52:18Z</time>
      </trkpt>
      <trkpt lat="48.72572" lon="7.03681">
        <ele>247.9</ele>
        <time>2023-11-20T09:52:23Z</time>
      </trkpt>
      <trkpt lat="48.7257" lon="7.03668">
        <ele>247.9</ele>
        <time>2023-11-20T09:52:25Z</time>
      </trkpt>
      <trkpt lat="48.72566" lon="7.03658">
        <ele>248</ele>
        <time>2023-11-20T09:52:27Z</time>
      </trkpt>
      <trkpt lat="48.72551" lon="7.03635">
        <ele>248.1</ele>
        <time>2023-11-20T09:52:32Z</time>
      </trkpt>
      <trkpt lat="48.72546" lon="7.03626">
        <ele>248.1</ele>
        <time>2023-11-20T09:52:34Z</time>
      </trkpt>
      <trkpt lat="48.72541" lon="7.03609">
        <ele>248</ele>
        <time>2023-11-20T09:52:37Z</time>
      </trkpt>
      <trkpt lat="48.7254" lon="7.03596">
        <ele>247.9</ele>
        <time>2023-11-20T09:52:39Z</time>
      </trkpt>
      <trkpt lat="48.72545" lon="7.03569">
        <ele>247.8</ele>
        <time>2023-11-20T09:52:43Z</time>
      </trkpt>
      <trkpt lat="48.72545" lon="7.03562">
        <ele>247.8</ele>
        <time>2023-11-20T09:52:44Z</time>
      </trkpt>
      <trkpt lat="48.72545" lon="7.03549">
        <ele>247.7</ele>
        <time>2023-11-20T09:52:46Z</time>
      </trkpt>
      <trkpt lat="48.72543" lon="7.03542">
        <ele>247.7</ele>
        <time>2023-11-20T09:52:47Z</time>
      </trkpt>
      <trkpt lat="48.72536" lon="7.03514">
        <ele>247.7</ele>
        <time>2023-11-20T09:52:52Z</time>
      </trkpt>
      <trkpt lat="48.7253" lon="7.03488">
        <ele>247.7</ele>
        <time>2023-11-20T09:53:08Z</time>
      </trkpt>
      <trkpt lat="48.7253" lon="7.03487">
        <ele>247.7</ele>
        <time>2023-11-20T09:53:10Z</time>
      </trkpt>
      <trkpt lat="48.72522" lon="7.03462">
        <ele>247.8</ele>
        <time>2023-11-20T09:53:26Z</time>
      </trkpt>
      <trkpt lat="48.72518" lon="7.03457">
        <ele>247.8</ele>
        <time>2023-11-20T09:53:31Z</time>
      </trkpt>
      <trkpt lat="48.72527" lon="7.03481">
        <ele>247.7</ele>
        <time>2023-11-20T09:53:38Z</time>
      </trkpt>
      <trkpt lat="48.72533" lon="7.03508">
        <ele>247.7</ele>
        <time>2023-11-20T09:53:44Z</time>
      </trkpt>
      <trkpt lat="48.72539" lon="7.03521">
        <ele>247.7</ele>
        <time>2023-11-20T09:53:47Z</time>
      </trkpt>
      <trkpt lat="48.7255" lon="7.03551">
        <ele>247.7</ele>
        <time>2023-11-20T09:53:52Z</time>
      </trkpt>
      <trkpt lat="48.72553" lon="7.03564">
        <ele>247.8</ele>
        <time>2023-11-20T09:53:54Z</time>
      </trkpt>
      <trkpt lat="48.72553" lon="7.03578">
        <ele>247.8</ele>
        <time>2023-11-20T09:53:56Z</time>
      </trkpt>
      <trkpt lat="48.72548" lon="7.0361">
        <ele>248</ele>
        <time>2023-11-20T09:54:01Z</time>
      </trkpt>
      <trkpt lat="48.72548" lon="7.03617">
        <ele>248</ele>
        <time>2023-11-20T09:54:02Z</time>
      </trkpt>
      <trkpt lat="48.7255" lon="7.03629">
        <ele>248.1</ele>
        <time>2023-11-20T09:54:04Z</time>
      </trkpt>
      <trkpt lat="48.72555" lon="7.0364">
        <ele>248.1</ele>
        <time>2023-11-20T09:54:06Z</time>
      </trkpt>
      <trkpt lat="48.72564" lon="7.03655">
        <ele>248</ele>
        <time>2023-11-20T09:54:09Z</time>
      </trkpt>
      <trkpt lat="48.72571" lon="7.03665">
        <ele>247.9</ele>
        <time>2023-11-20T09:54:11Z</time>
      </trkpt>
      <trkpt lat="48.72578" lon="7.0369">
        <ele>247.9</ele>
        <time>2023-11-20T09:54:15Z</time>
      </trkpt>
      <trkpt lat="48.72579" lon="7.03704">
        <ele>247.9</ele>
        <time>2023-11-20T09:54:17Z</time>
      </trkpt>
      <trkpt lat="48.72578" lon="7.03737">
        <ele>248</ele>
        <time>2023-11-20T09:54:22Z</time>
      </trkpt>
      <trkpt lat="48.72578" lon="7.03771">
        <ele>248.1</ele>
        <time>2023-11-20T09:54:27Z</time>
      </trkpt>
      <trkpt lat="48.72579" lon="7.03777">
        <ele>248.1</ele>
        <time>2023-11-20T09:54:28Z</time>
      </trkpt>
      <trkpt lat="48.72585" lon="7.0381">
        <ele>248</ele>
        <time>2023-11-20T09:54:33Z</time>
      </trkpt>
      <trkpt lat="48.72587" lon="7.03816">
        <ele>248</ele>
        <time>2023-11-20T09:54:34Z</time>
      </trkpt>
      <trkpt lat="48.72601" lon="7.03841">
        <ele>247.8</ele>
        <time>2023-11-20T09:54:39Z</time>
      </trkpt>
      <trkpt lat="48.72606" lon="7.03849">
        <ele>247.7</ele>
        <time>2023-11-20T09:54:41Z</time>
      </trkpt>
      <trkpt lat="48.72616" lon="7.03859">
        <ele>247.6</ele>
        <time>2023-11-20T09:54:44Z</time>
      </trkpt>
      <trkpt lat="48.72632" lon="7.0387">
        <ele>247.5</ele>
        <time>2023-11-20T09:54:48Z</time>
      </trkpt>
      <trkpt lat="48.72648" lon="7.03885">
        <ele>247.3</ele>
        <time>2023-11-20T09:54:52Z</time>
      </trkpt>
      <trkpt lat="48.72651" lon="7.03889">
        <ele>247.2</ele>
        <time>2023-11-20T09:54:53Z</time>
      </trkpt>
      <trkpt lat="48.72657" lon="7.039">
        <ele>247.1</ele>
        <time>2023-11-20T09:54:55Z</time>
      </trkpt>
      <trkpt lat="48.72667" lon="7.03922">
        <ele>247.1</ele>
        <time>2023-11-20T09:54:59Z</time>
      </trkpt>
      <trkpt lat="48.72678" lon="7.03945">
        <ele>247.2</ele>
        <time>2023-11-20T09:55:03Z</time>
      </trkpt>
      <trkpt lat="48.7269" lon="7.03967">
        <ele>247.2</ele>
        <time>2023-11-20T09:55:07Z</time>
      </trkpt>
      <trkpt lat="48.72703" lon="7.03985">
        <ele>247.2</ele>
        <time>2023-11-20T09:55:11Z</time>
      </trkpt>
      <trkpt lat="48.72721" lon="7.04005">
        <ele>247.1</ele>
        <time>2023-11-20T09:55:16Z</time>
      </trkpt>
      <trkpt lat="48.72725" lon="7.04009">
        <ele>247.1</ele>
        <time>2023-11-20T09:55:17Z</time>
      </trkpt>
      <trkpt lat="48.72738" lon="7.04015">
        <ele>247.1</ele>
        <time>2023-11-20T09:55:20Z</time>
      </trkpt>
      <trkpt lat="48.72746" lon="7.04014">
        <ele>247.1</ele>
        <time>2023-11-20T09:55:22Z</time>
      </trkpt>
      <trkpt lat="48.72763" lon="7.04002">
        <ele>247.1</ele>
        <time>2023-11-20T09:55:26Z</time>
      </trkpt>
      <trkpt lat="48.72782" lon="7.03987">
        <ele>247.2</ele>
        <time>2023-11-20T09:55:31Z</time>
      </trkpt>
      <trkpt lat="48.72803" lon="7.03975">
        <ele>247.3</ele>
        <time>2023-11-20T09:55:36Z</time>
      </trkpt>
      <trkpt lat="48.72822" lon="7.03962">
        <ele>247.3</ele>
        <time>2023-11-20T09:55:41Z</time>
      </trkpt>
      <trkpt lat="48.72836" lon="7.03948">
        <ele>247.2</ele>
        <time>2023-11-20T09:55:45Z</time>
      </trkpt>
      <trkpt lat="48.72837" lon="7.03937">
        <ele>247.2</ele>
        <time>2023-11-20T09:55:47Z</time>
      </trkpt>
      <trkpt lat="48.72833" lon="7.03925">
        <ele>247.2</ele>
        <time>2023-11-20T09:55:49Z</time>
      </trkpt>
      <trkpt lat="48.72824" lon="7.0391">
        <ele>247.1</ele>
        <time>2023-11-20T09:55:52Z</time>
      </trkpt>
      <trkpt lat="48.72811" lon="7.03888">
        <ele>247.1</ele>
        <time>2023-11-20T09:55:56Z</time>
      </trkpt>
      <trkpt lat="48.72796" lon="7.03864">
        <ele>247.2</ele>
        <time>2023-11-20T09:56:01Z</time>
      </trkpt>
      <trkpt lat="48.72789" lon="7.03848">
        <ele>247.2</ele>
        <time>2023-11-20T09:56:04Z</time>
      </trkpt>
      <trkpt lat="48.72786" lon="7.03836">
        <ele>247.2</ele>
        <time>2023-11-20T09:56:06Z</time>
      </trkpt>
      <trkpt lat="48.72785" lon="7.03804">
        <ele>247.4</ele>
        <time>2023-11-20T09:56:11Z</time>
      </trkpt>
      <trkpt lat="48.72787" lon="7.03791">
        <ele>247.5</ele>
        <time>2023-11-20T09:56:13Z</time>
      </trkpt>
      <trkpt lat="48.72794" lon="7.03776">
        <ele>247.6</ele>
        <time>2023-11-20T09:56:16Z</time>
      </trkpt>
      <trkpt lat="48.728" lon="7.03767">
        <ele>247.6</ele>
        <time>2023-11-20T09:56:18Z</time>
      </trkpt>
      <trkpt lat="48.72818" lon="7.03747">
        <ele>248</ele>
        <time>2023-11-20T09:56:23Z</time>
      </trkpt>
      <trkpt lat="48.72824" lon="7.03738">
        <ele>248.1</ele>
        <time>2023-11-20T09:56:25Z</time>
      </trkpt>
      <trkpt lat="48.7283" lon="7.03723">
        <ele>248.1</ele>
        <time>2023-11-20T09:56:28Z</time>
      </trkpt>
      <trkpt lat="48.72828" lon="7.03712">
        <ele>248.2</ele>
        <time>2023-11-20T09:56:30Z</time>
      </trkpt>
      <trkpt lat="48.72825" lon="7.03701">
        <ele>248.3</ele>
        <time>2023-11-20T09:56:32Z</time>
      </trkpt>
      <trkpt lat="48.72814" lon="7.03675">
        <ele>248.3</ele>
        <time>2023-11-20T09:56:36Z</time>
      </trkpt>
      <trkpt lat="48.72806" lon="7.03649">
        <ele>248.2</ele>
        <time>2023-11-20T09:56:40Z</time>
      </trkpt>
      <trkpt lat="48.728" lon="7.03622">
        <ele>248.1</ele>
        <time>2023-11-20T09:56:44Z</time>
      </trkpt>
      <trkpt lat="48.72798" lon="7.03615">
        <ele>248.1</ele>
        <time>2023-11-20T09:56:45Z</time>
      </trkpt>
      <trkpt lat="48.72798" lon="7.03602">
        <ele>248.1</ele>
        <time>2023-11-20T09:56:47Z</time>
      </trkpt>
      <trkpt lat="48.72801" lon="7.03589">
        <ele>248.1</ele>
        <time>2023-11-20T09:56:49Z</time>
      </trkpt>
      <trkpt lat="48.72805" lon="7.03579">
        <ele>248.1</ele>
        <time>2023-11-20T09:56:51Z</time>
      </trkpt>
      <trkpt lat="48.7281" lon="7.03571">
        <ele>248.1</ele>
        <time>2023-11-20T09:56:53Z</time>
      </trkpt>
      <trkpt lat="48.72815" lon="7.03562">
        <ele>248.1</ele>
        <time>2023-11-20T09:56:55Z</time>
      </trkpt>
      <trkpt lat="48.72818" lon="7.03548">
        <ele>248.2</ele>
        <time>2023-11-20T09:56:58Z</time>
      </trkpt>
      <trkpt lat="48.72818" lon="7.03537">
        <ele>248.2</ele>
        <time>2023-11-20T09:57:00Z</time>
      </trkpt>
      <trkpt lat="48.72816" lon="7.03526">
        <ele>248.2</ele>
        <time>2023-11-20T09:57:02Z</time>
      </trkpt>
      <trkpt lat="48.72811" lon="7.03501">
        <ele>248.3</ele>
        <time>2023-11-20T09:57:06Z</time>
      </trkpt>
      <trkpt lat="48.72812" lon="7.03482">
        <ele>248.3</ele>
        <time>2023-11-20T09:57:09Z</time>
      </trkpt>
      <trkpt lat="48.72815" lon="7.0346">
        <ele>248.3</ele>
        <time>2023-11-20T09:57:13Z</time>
      </trkpt>
      <trkpt lat="48.72816" lon="7.03432">
        <ele>248.4</ele>
        <time>2023-11-20T09:57:18Z</time>
      </trkpt>
      <trkpt lat="48.72817" lon="7.03404">
        <ele>248.4</ele>
        <time>2023-11-20T09:57:22Z</time>
      </trkpt>
      <trkpt lat="48.7282" lon="7.03372">
        <ele>248.4</ele>
        <time>2023-11-20T09:57:27Z</time>
      </trkpt>
      <trkpt lat="48.72828" lon="7.03343">
        <ele>248.3</ele>
        <time>2023-11-20T09:57:32Z</time>
      </trkpt>
      <trkpt lat="48.72833" lon="7.03328">
        <ele>248.3</ele>
        <time>2023-11-20T09:57:35Z</time>
      </trkpt>
      <trkpt lat="48.72833" lon="7.033">
        <ele>248.5</ele>
        <time>2023-11-20T09:57:40Z</time>
      </trkpt>
      <trkpt lat="48.72832" lon="7.03284">
        <ele>248.7</ele>
        <time>2023-11-20T09:57:43Z</time>
      </trkpt>
      <trkpt lat="48.72829" lon="7.03268">
        <ele>248.9</ele>
        <time>2023-11-20T09:57:46Z</time>
      </trkpt>
      <trkpt lat="48.72823" lon="7.0324">
        <ele>249.4</ele>
        <time>2023-11-20T09:57:51Z</time>
      </trkpt>
      <trkpt lat="48.72809" lon="7.03218">
        <ele>249.3</ele>
        <time>2023-11-20T09:57:56Z</time>
      </trkpt>
      <trkpt lat="48.7279" lon="7.03201">
        <ele>248.8</ele>
        <time>2023-11-20T09:58:01Z</time>
      </trkpt>
      <trkpt lat="48.72773" lon="7.03188">
        <ele>248.4</ele>
        <time>2023-11-20T09:58:06Z</time>
      </trkpt>
      <trkpt lat="48.72758" lon="7.03171">
        <ele>248.1</ele>
        <time>2023-11-20T09:58:11Z</time>
      </trkpt>
      <trkpt lat="48.72742" lon="7.03147">
        <ele>248.2</ele>
        <time>2023-11-20T09:58:16Z</time>
      </trkpt>
      <trkpt lat="48.72729" lon="7.0312">
        <ele>248.2</ele>
        <time>2023-11-20T09:58:21Z</time>
      </trkpt>
      <trkpt lat="48.72718" lon="7.0309">
        <ele>248.1</ele>
        <time>2023-11-20T09:58:26Z</time>
      </trkpt>
      <trkpt lat="48.72711" lon="7.03064">
        <ele>248.1</ele>
        <time>2023-11-20T09:58:30Z</time>
      </trkpt>
      <trkpt lat="48.72704" lon="7.03037">
        <ele>248.1</ele>
        <time>2023-11-20T09:58:34Z</time>
      </trkpt>
      <trkpt lat="48.72697" lon="7.03005">
        <ele>248.1</ele>
        <time>2023-11-20T09:58:39Z</time>
      </trkpt>
      <trkpt lat="48.7269" lon="7.02974">
        <ele>248.1</ele>
        <time>2023-11-20T09:58:44Z</time>
      </trkpt>
      <trkpt lat="48.72688" lon="7.02968">
        <ele>248.2</ele>
        <time>2023-11-20T09:58:45Z</time>
      </trkpt>
      <trkpt lat="48.72677" lon="7.0294">
        <ele>248.3</ele>
        <time>2023-11-20T09:58:50Z</time>
      </trkpt>
      <trkpt lat="48.72669" lon="7.02915">
        <ele>248.5</ele>
        <time>2023-11-20T09:58:55Z</time>
      </trkpt>
      <trkpt lat="48.72664" lon="7.02906">
        <ele>248.6</ele>
        <time>2023-11-20T09:58:57Z</time>
      </trkpt>
      <trkpt lat="48.72659" lon="7.029">
        <ele>248.7</ele>
        <time>2023-11-20T09:58:59Z</time>
      </trkpt>
      <trkpt lat="48.72655" lon="7.02899">
        <ele>248.7</ele>
        <time>2023-11-20T09:59:01Z</time>
      </trkpt>
      <trkpt lat="48.72638" lon="7.02914">
        <ele>248.6</ele>
        <time>2023-11-20T09:59:07Z</time>
      </trkpt>
      <trkpt lat="48.72623" lon="7.0293">
        <ele>248.3</ele>
        <time>2023-11-20T09:59:12Z</time>
      </trkpt>
      <trkpt lat="48.72605" lon="7.02947">
        <ele>248.1</ele>
        <time>2023-11-20T09:59:17Z</time>
      </trkpt>
      <trkpt lat="48.72593" lon="7.02958">
        <ele>248.2</ele>
        <time>2023-11-20T09:59:21Z</time>
      </trkpt>
      <trkpt lat="48.72587" lon="7.02961">
        <ele>248.2</ele>
        <time>2023-11-20T09:59:23Z</time>
      </trkpt>
      <trkpt lat="48.72579" lon="7.02961">
        <ele>248.3</ele>
        <time>2023-11-20T09:59:25Z</time>
      </trkpt>
      <trkpt lat="48.72559" lon="7.02961">
        <ele>248.5</ele>
        <time>2023-11-20T09:59:31Z</time>
      </trkpt>
      <trkpt lat="48.72541" lon="7.02965">
        <ele>248.6</ele>
        <time>2023-11-20T09:59:36Z</time>
      </trkpt>
      <trkpt lat="48.72521" lon="7.02971">
        <ele>248.8</ele>
        <time>2023-11-20T09:59:41Z</time>
      </trkpt>
      <trkpt lat="48.72504" lon="7.0298">
        <ele>248.9</ele>
        <time>2023-11-20T09:59:47Z</time>
      </trkpt>
      <trkpt lat="48.72495" lon="7.02988">
        <ele>248.9</ele>
        <time>2023-11-20T09:59:50Z</time>
      </trkpt>
      <trkpt lat="48.72479" lon="7.03009">
        <ele>248.3</ele>
        <time>2023-11-20T09:59:55Z</time>
      </trkpt>
      <trkpt lat="48.72474" lon="7.03039">
        <ele>248</ele>
        <time>2023-11-20T09:59:59Z</time>
      </trkpt>
      <trkpt lat="48.72471" lon="7.03068">
        <ele>247.9</ele>
        <time>2023-11-20T10:00:03Z</time>
      </trkpt>
      <trkpt lat="48.72468" lon="7.03093">
        <ele>247.7</ele>
        <time>2023-11-20T10:00:06Z</time>
      </trkpt>
      <trkpt lat="48.72471" lon="7.03124">
        <ele>247.8</ele>
        <time>2023-11-20T10:00:10Z</time>
      </trkpt>
      <trkpt lat="48.72472" lon="7.03132">
        <ele>247.8</ele>
        <time>2023-11-20T10:00:11Z</time>
      </trkpt>
      <trkpt lat="48.72474" lon="7.03147">
        <ele>247.9</ele>
        <time>2023-11-20T10:00:13Z</time>
      </trkpt>
      <trkpt lat="48.72469" lon="7.03176">
        <ele>248</ele>
        <time>2023-11-20T10:00:17Z</time>
      </trkpt>
      <trkpt lat="48.72469" lon="7.0321">
        <ele>248.2</ele>
        <time>2023-11-20T10:00:22Z</time>
      </trkpt>
      <trkpt lat="48.72469" lon="7.03239">
        <ele>248.3</ele>
        <time>2023-11-20T10:00:26Z</time>
      </trkpt>
      <trkpt lat="48.72468" lon="7.03246">
        <ele>248.3</ele>
        <time>2023-11-20T10:00:27Z</time>
      </trkpt>
      <trkpt lat="48.72464" lon="7.03266">
        <ele>248.3</ele>
        <time>2023-11-20T10:00:30Z</time>
      </trkpt>
      <trkpt lat="48.72462" lon="7.03292">
        <ele>248.2</ele>
        <time>2023-11-20T10:00:34Z</time>
      </trkpt>
      <trkpt lat="48.72464" lon="7.03305">
        <ele>248.2</ele>
        <time>2023-11-20T10:00:36Z</time>
      </trkpt>
      <trkpt lat="48.72469" lon="7.03315">
        <ele>248.1</ele>
        <time>2023-11-20T10:00:38Z</time>
      </trkpt>
      <trkpt lat="48.72482" lon="7.03335">
        <ele>248.2</ele>
        <time>2023-11-20T10:00:42Z</time>
      </trkpt>
      <trkpt lat="48.72494" lon="7.03362">
        <ele>248.2</ele>
        <time>2023-11-20T10:00:47Z</time>
      </trkpt>
      <trkpt lat="48.72496" lon="7.03375">
        <ele>248.1</ele>
        <time>2023-11-20T10:00:49Z</time>
      </trkpt>
      <trkpt lat="48.72502" lon="7.03407">
        <ele>248</ele>
        <time>2023-11-20T10:00:54Z</time>
      </trkpt>
      <trkpt lat="48.72506" lon="7.0342">
        <ele>248</ele>
        <time>2023-11-20T10:00:56Z</time>
      </trkpt>
      <trkpt lat="48.72516" lon="7.03445">
        <ele>247.9</ele>
        <time>2023-11-20T10:01:00Z</time>
      </trkpt>
      <trkpt lat="48.72527" lon="7.03469">
        <ele>247.7</ele>
        <time>2023-11-20T10:01:04Z</time>
      </trkpt>
      <trkpt lat="48.72538" lon="7.03498">
        <ele>247.7</ele>
        <time>2023-11-20T10:01:09Z</time>
      </trkpt>
      <trkpt lat="48.72546" lon="7.03528">
        <ele>247.7</ele>
        <time>2023-11-20T10:01:14Z</time>
      </trkpt>
      <trkpt lat="48.72556" lon="7.03558">
        <ele>247.8</ele>
        <time>2023-11-20T10:01:19Z</time>
      </trkpt>
      <trkpt lat="48.72558" lon="7.0357">
        <ele>247.8</ele>
        <time>2023-11-20T10:01:21Z</time>
      </trkpt>
      <trkpt lat="48.72558" lon="7.03583">
        <ele>247.9</ele>
        <time>2023-11-20T10:01:23Z</time>
      </trkpt>
      <trkpt lat="48.72555" lon="7.03595">
        <ele>247.9</ele>
        <time>2023-11-20T10:01:25Z</time>
      </trkpt>
      <trkpt lat="48.72553" lon="7.03607">
        <ele>248</ele>
        <time>2023-11-20T10:01:27Z</time>
      </trkpt>
      <trkpt lat="48.72553" lon="7.03619">
        <ele>248.1</ele>
        <time>2023-11-20T10:01:29Z</time>
      </trkpt>
      <trkpt lat="48.72554" lon="7.0363">
        <ele>248.1</ele>
        <time>2023-11-20T10:01:31Z</time>
      </trkpt>
      <trkpt lat="48.72558" lon="7.03641">
        <ele>248</ele>
        <time>2023-11-20T10:01:33Z</time>
      </trkpt>
      <trkpt lat="48.72572" lon="7.03664">
        <ele>247.9</ele>
        <time>2023-11-20T10:01:38Z</time>
      </trkpt>
      <trkpt lat="48.72577" lon="7.03675">
        <ele>247.9</ele>
        <time>2023-11-20T10:01:40Z</time>
      </trkpt>
      <trkpt lat="48.7258" lon="7.03688">
        <ele>247.9</ele>
        <time>2023-11-20T10:01:42Z</time>
      </trkpt>
      <trkpt lat="48.72581" lon="7.03701">
        <ele>247.9</ele>
        <time>2023-11-20T10:01:44Z</time>
      </trkpt>
      <trkpt lat="48.72577" lon="7.03731">
        <ele>248</ele>
        <time>2023-11-20T10:01:49Z</time>
      </trkpt>
      <trkpt lat="48.72577" lon="7.03737">
        <ele>248</ele>
        <time>2023-11-20T10:01:50Z</time>
      </trkpt>
      <trkpt lat="48.72576" lon="7.03769">
        <ele>248.1</ele>
        <time>2023-11-20T10:01:55Z</time>
      </trkpt>
      <trkpt lat="48.72577" lon="7.03776">
        <ele>248.1</ele>
        <time>2023-11-20T10:01:56Z</time>
      </trkpt>
      <trkpt lat="48.72578" lon="7.03788">
        <ele>248.1</ele>
        <time>2023-11-20T10:01:58Z</time>
      </trkpt>
      <trkpt lat="48.72584" lon="7.03813">
        <ele>248</ele>
        <time>2023-11-20T10:02:02Z</time>
      </trkpt>
      <trkpt lat="48.72588" lon="7.03825">
        <ele>248</ele>
        <time>2023-11-20T10:02:04Z</time>
      </trkpt>
      <trkpt lat="48.72598" lon="7.0384">
        <ele>247.8</ele>
        <time>2023-11-20T10:02:07Z</time>
      </trkpt>
      <trkpt lat="48.72615" lon="7.03859">
        <ele>247.6</ele>
        <time>2023-11-20T10:02:12Z</time>
      </trkpt>
      <trkpt lat="48.72633" lon="7.03872">
        <ele>247.4</ele>
        <time>2023-11-20T10:02:16Z</time>
      </trkpt>
      <trkpt lat="48.7265" lon="7.03887">
        <ele>247.2</ele>
        <time>2023-11-20T10:02:20Z</time>
      </trkpt>
      <trkpt lat="48.72656" lon="7.03897">
        <ele>247.1</ele>
        <time>2023-11-20T10:02:22Z</time>
      </trkpt>
      <trkpt lat="48.72668" lon="7.03926">
        <ele>247.1</ele>
        <time>2023-11-20T10:02:27Z</time>
      </trkpt>
      <trkpt lat="48.72677" lon="7.0395">
        <ele>247.2</ele>
        <time>2023-11-20T10:02:31Z</time>
      </trkpt>
      <trkpt lat="48.7269" lon="7.0397">
        <ele>247.2</ele>
        <time>2023-11-20T10:02:35Z</time>
      </trkpt>
      <trkpt lat="48.72697" lon="7.03979">
        <ele>247.2</ele>
        <time>2023-11-20T10:02:37Z</time>
      </trkpt>
      <trkpt lat="48.72712" lon="7.03996">
        <ele>247.1</ele>
        <time>2023-11-20T10:02:41Z</time>
      </trkpt>
      <trkpt lat="48.72716" lon="7.03999">
        <ele>247.1</ele>
        <time>2023-11-20T10:02:42Z</time>
      </trkpt>
      <trkpt lat="48.72736" lon="7.04011">
        <ele>247.1</ele>
        <time>2023-11-20T10:02:47Z</time>
      </trkpt>
      <trkpt lat="48.72744" lon="7.0401">
        <ele>247.1</ele>
        <time>2023-11-20T10:02:49Z</time>
      </trkpt>
      <trkpt lat="48.72762" lon="7.04">
        <ele>247.1</ele>
        <time>2023-11-20T10:02:53Z</time>
      </trkpt>
      <trkpt lat="48.7278" lon="7.03988">
        <ele>247.2</ele>
        <time>2023-11-20T10:02:57Z</time>
      </trkpt>
      <trkpt lat="48.72797" lon="7.03977">
        <ele>247.3</ele>
        <time>2023-11-20T10:03:01Z</time>
      </trkpt>
      <trkpt lat="48.72815" lon="7.03967">
        <ele>247.3</ele>
        <time>2023-11-20T10:03:05Z</time>
      </trkpt>
      <trkpt lat="48.72832" lon="7.03953">
        <ele>247.2</ele>
        <time>2023-11-20T10:03:09Z</time>
      </trkpt>
      <trkpt lat="48.72838" lon="7.03944">
        <ele>247.2</ele>
        <time>2023-11-20T10:03:11Z</time>
      </trkpt>
      <trkpt lat="48.72836" lon="7.0393">
        <ele>247.2</ele>
        <time>2023-11-20T10:03:13Z</time>
      </trkpt>
      <trkpt lat="48.72828" lon="7.03912">
        <ele>247.2</ele>
        <time>2023-11-20T10:03:16Z</time>
      </trkpt>
      <trkpt lat="48.72815" lon="7.03892">
        <ele>247.1</ele>
        <time>2023-11-20T10:03:20Z</time>
      </trkpt>
      <trkpt lat="48.72801" lon="7.03873">
        <ele>247.1</ele>
        <time>2023-11-20T10:03:24Z</time>
      </trkpt>
      <trkpt lat="48.72789" lon="7.03852">
        <ele>247.2</ele>
        <time>2023-11-20T10:03:28Z</time>
      </trkpt>
      <trkpt lat="48.72786" lon="7.03839">
        <ele>247.2</ele>
        <time>2023-11-20T10:03:30Z</time>
      </trkpt>
      <trkpt lat="48.72782" lon="7.03811">
        <ele>247.3</ele>
        <time>2023-11-20T10:03:34Z</time>
      </trkpt>
      <trkpt lat="48.72782" lon="7.03804">
        <ele>247.4</ele>
        <time>2023-11-20T10:03:35Z</time>
      </trkpt>
      <trkpt lat="48.72789" lon="7.03778">
        <ele>247.5</ele>
        <time>2023-11-20T10:03:39Z</time>
      </trkpt>
      <trkpt lat="48.72794" lon="7.03768">
        <ele>247.6</ele>
        <time>2023-11-20T10:03:41Z</time>
      </trkpt>
      <trkpt lat="48.72807" lon="7.03751">
        <ele>247.8</ele>
        <time>2023-11-20T10:03:45Z</time>
      </trkpt>
      <trkpt lat="48.72813" lon="7.03741">
        <ele>248</ele>
        <time>2023-11-20T10:03:47Z</time>
      </trkpt>
      <trkpt lat="48.72822" lon="7.03728">
        <ele>248.1</ele>
        <time>2023-11-20T10:03:50Z</time>
      </trkpt>
      <trkpt lat="48.72827" lon="7.03715">
        <ele>248.2</ele>
        <time>2023-11-20T10:03:56Z</time>
      </trkpt>
      <trkpt lat="48.72818" lon="7.0374">
        <ele>248.1</ele>
        <time>2023-11-20T10:04:07Z</time>
      </trkpt>
      <trkpt lat="48.72806" lon="7.03761">
        <ele>247.7</ele>
        <time>2023-11-20T10:04:17Z</time>
      </trkpt>
      <trkpt lat="48.72792" lon="7.03781">
        <ele>247.5</ele>
        <time>2023-11-20T10:04:26Z</time>
      </trkpt>
      <trkpt lat="48.72785" lon="7.03806">
        <ele>247.4</ele>
        <time>2023-11-20T10:04:35Z</time>
      </trkpt>
      <trkpt lat="48.72785" lon="7.03834">
        <ele>247.3</ele>
        <time>2023-11-20T10:04:44Z</time>
      </trkpt>
      <trkpt lat="48.72788" lon="7.03845">
        <ele>247.2</ele>
        <time>2023-11-20T10:04:47Z</time>
      </trkpt>
      <trkpt lat="48.72795" lon="7.03871">
        <ele>247.1</ele>
        <time>2023-11-20T10:04:56Z</time>
      </trkpt>
      <trkpt lat="48.72809" lon="7.0389">
        <ele>247.1</ele>
        <time>2023-11-20T10:05:05Z</time>
      </trkpt>
      <trkpt lat="48.72823" lon="7.03908">
        <ele>247.1</ele>
        <time>2023-11-20T10:05:14Z</time>
      </trkpt>
      <trkpt lat="48.72835" lon="7.03931">
        <ele>247.2</ele>
        <time>2023-11-20T10:05:23Z</time>
      </trkpt>
      <trkpt lat="48.7284" lon="7.03959">
        <ele>247.3</ele>
        <time>2023-11-20T10:05:31Z</time>
      </trkpt>
      <trkpt lat="48.72838" lon="7.03986">
        <ele>247.6</ele>
        <time>2023-11-20T10:05:39Z</time>
      </trkpt>
      <trkpt lat="48.72851" lon="7.04003">
        <ele>247.6</ele>
        <time>2023-11-20T10:05:47Z</time>
      </trkpt>
      <trkpt lat="48.72865" lon="7.04021">
        <ele>247.5</ele>
        <time>2023-11-20T10:05:55Z</time>
      </trkpt>
      <trkpt lat="48.7287" lon="7.04047">
        <ele>247.3</ele>
        <time>2023-11-20T10:06:02Z</time>
      </trkpt>
      <trkpt lat="48.7287" lon="7.04077">
        <ele>247.1</ele>
        <time>2023-11-20T10:06:09Z</time>
      </trkpt>
      <trkpt lat="48.72881" lon="7.041">
        <ele>247.6</ele>
        <time>2023-11-20T10:06:16Z</time>
      </trkpt>
      <trkpt lat="48.72889" lon="7.04127">
        <ele>248.2</ele>
        <time>2023-11-20T10:06:24Z</time>
      </trkpt>
      <trkpt lat="48.72901" lon="7.04149">
        <ele>248.9</ele>
        <time>2023-11-20T10:06:33Z</time>
      </trkpt>
      <trkpt lat="48.72901" lon="7.04178">
        <ele>249.5</ele>
        <time>2023-11-20T10:06:42Z</time>
      </trkpt>
      <trkpt lat="48.729" lon="7.04183">
        <ele>250</ele>
        <time>2023-11-20T10:06:44Z</time>
      </trkpt>
      <trkpt lat="48.72883" lon="7.04193">
        <ele>250.3</ele>
        <time>2023-11-20T10:06:54Z</time>
      </trkpt>
      <trkpt lat="48.72873" lon="7.04215">
        <ele>250.5</ele>
        <time>2023-11-20T10:07:03Z</time>
      </trkpt>
      <trkpt lat="48.72872" lon="7.04246">
        <ele>250.2</ele>
        <time>2023-11-20T10:07:12Z</time>
      </trkpt>
      <trkpt lat="48.72866" lon="7.04273">
        <ele>250.3</ele>
        <time>2023-11-20T10:07:19Z</time>
      </trkpt>
      <trkpt lat="48.72869" lon="7.04303">
        <ele>250.3</ele>
        <time>2023-11-20T10:07:27Z</time>
      </trkpt>
      <trkpt lat="48.72882" lon="7.04326">
        <ele>250.2</ele>
        <time>2023-11-20T10:07:34Z</time>
      </trkpt>
      <trkpt lat="48.72896" lon="7.04343">
        <ele>250</ele>
        <time>2023-11-20T10:07:41Z</time>
      </trkpt>
      <trkpt lat="48.72913" lon="7.04361">
        <ele>249.9</ele>
        <time>2023-11-20T10:07:49Z</time>
      </trkpt>
      <trkpt lat="48.72932" lon="7.04371">
        <ele>249.8</ele>
        <time>2023-11-20T10:07:57Z</time>
      </trkpt>
      <trkpt lat="48.72949" lon="7.04387">
        <ele>249.6</ele>
        <time>2023-11-20T10:08:05Z</time>
      </trkpt>
      <trkpt lat="48.72965" lon="7.04402">
        <ele>249.6</ele>
        <time>2023-11-20T10:08:12Z</time>
      </trkpt>
      <trkpt lat="48.72979" lon="7.04425">
        <ele>249.4</ele>
        <time>2023-11-20T10:08:20Z</time>
      </trkpt>
      <trkpt lat="48.72989" lon="7.0445">
        <ele>249.1</ele>
        <time>2023-11-20T10:08:27Z</time>
      </trkpt>
      <trkpt lat="48.72997" lon="7.04478">
        <ele>248.7</ele>
        <time>2023-11-20T10:08:35Z</time>
      </trkpt>
      <trkpt lat="48.73011" lon="7.045">
        <ele>248.4</ele>
        <time>2023-11-20T10:08:43Z</time>
      </trkpt>
      <trkpt lat="48.73028" lon="7.04514">
        <ele>248.2</ele>
        <time>2023-11-20T10:08:52Z</time>
      </trkpt>
      <trkpt lat="48.73045" lon="7.0453">
        <ele>248.2</ele>
        <time>2023-11-20T10:09:00Z</time>
      </trkpt>
      <trkpt lat="48.73057" lon="7.04551">
        <ele>248.3</ele>
        <time>2023-11-20T10:09:07Z</time>
      </trkpt>
      <trkpt lat="48.73068" lon="7.04575">
        <ele>248.2</ele>
        <time>2023-11-20T10:09:14Z</time>
      </trkpt>
      <trkpt lat="48.73075" lon="7.046">
        <ele>248.2</ele>
        <time>2023-11-20T10:09:21Z</time>
      </trkpt>
      <trkpt lat="48.73085" lon="7.04626">
        <ele>248.2</ele>
        <time>2023-11-20T10:09:28Z</time>
      </trkpt>
      <trkpt lat="48.73092" lon="7.04653">
        <ele>248.2</ele>
        <time>2023-11-20T10:09:35Z</time>
      </trkpt>
      <trkpt lat="48.73098" lon="7.04681">
        <ele>248.1</ele>
        <time>2023-11-20T10:09:42Z</time>
      </trkpt>
      <trkpt lat="48.73108" lon="7.04709">
        <ele>247.9</ele>
        <time>2023-11-20T10:09:49Z</time>
      </trkpt>
      <trkpt lat="48.73121" lon="7.04733">
        <ele>247.7</ele>
        <time>2023-11-20T10:09:56Z</time>
      </trkpt>
      <trkpt lat="48.73133" lon="7.04754">
        <ele>247.6</ele>
        <time>2023-11-20T10:10:03Z</time>
      </trkpt>
      <trkpt lat="48.73146" lon="7.04775">
        <ele>247.5</ele>
        <time>2023-11-20T10:10:09Z</time>
      </trkpt>
      <trkpt lat="48.73161" lon="7.04796">
        <ele>247.4</ele>
        <time>2023-11-20T10:10:16Z</time>
      </trkpt>
      <trkpt lat="48.73175" lon="7.04817">
        <ele>247.5</ele>
        <time>2023-11-20T10:10:23Z</time>
      </trkpt>
      <trkpt lat="48.7319" lon="7.04839">
        <ele>247.6</ele>
        <time>2023-11-20T10:10:30Z</time>
      </trkpt>
      <trkpt lat="48.73206" lon="7.04855">
        <ele>247.7</ele>
        <time>2023-11-20T10:10:38Z</time>
      </trkpt>
      <trkpt lat="48.73223" lon="7.04863">
        <ele>247.9</ele>
        <time>2023-11-20T10:10:46Z</time>
      </trkpt>
      <trkpt lat="48.73241" lon="7.04861">
        <ele>247.9</ele>
        <time>2023-11-20T10:10:54Z</time>
      </trkpt>
      <trkpt lat="48.73252" lon="7.04864">
        <ele>248</ele>
        <time>2023-11-20T10:10:59Z</time>
      </trkpt>
      <trkpt lat="48.73258" lon="7.04876">
        <ele>248</ele>
        <time>2023-11-20T10:11:03Z</time>
      </trkpt>
      <trkpt lat="48.73263" lon="7.04871">
        <ele>248</ele>
        <time>2023-11-20T10:11:06Z</time>
      </trkpt>
      <trkpt lat="48.73248" lon="7.0486">
        <ele>248</ele>
        <time>2023-11-20T10:11:16Z</time>
      </trkpt>
      <trkpt lat="48.7323" lon="7.04857">
        <ele>247.9</ele>
        <time>2023-11-20T10:11:24Z</time>
      </trkpt>
      <trkpt lat="48.73211" lon="7.04851">
        <ele>247.8</ele>
        <time>2023-11-20T10:11:31Z</time>
      </trkpt>
      <trkpt lat="48.73194" lon="7.04838">
        <ele>247.6</ele>
        <time>2023-11-20T10:11:37Z</time>
      </trkpt>
      <trkpt lat="48.73181" lon="7.0482">
        <ele>247.6</ele>
        <time>2023-11-20T10:11:43Z</time>
      </trkpt>
      <trkpt lat="48.73166" lon="7.04803">
        <ele>247.5</ele>
        <time>2023-11-20T10:11:49Z</time>
      </trkpt>
      <trkpt lat="48.73152" lon="7.04783">
        <ele>247.4</ele>
        <time>2023-11-20T10:11:56Z</time>
      </trkpt>
      <trkpt lat="48.73138" lon="7.04762">
        <ele>247.5</ele>
        <time>2023-11-20T10:12:03Z</time>
      </trkpt>
      <trkpt lat="48.73124" lon="7.04743">
        <ele>247.7</ele>
        <time>2023-11-20T10:12:10Z</time>
      </trkpt>
      <trkpt lat="48.73112" lon="7.04718">
        <ele>247.8</ele>
        <time>2023-11-20T10:12:17Z</time>
      </trkpt>
      <trkpt lat="48.73101" lon="7.04692">
        <ele>248</ele>
        <time>2023-11-20T10:12:24Z</time>
      </trkpt>
      <trkpt lat="48.73095" lon="7.04663">
        <ele>248.2</ele>
        <time>2023-11-20T10:12:31Z</time>
      </trkpt>
      <trkpt lat="48.73087" lon="7.04636">
        <ele>248.2</ele>
        <time>2023-11-20T10:12:38Z</time>
      </trkpt>
      <trkpt lat="48.73087" lon="7.04628">
        <ele>248.2</ele>
        <time>2023-11-20T10:12:40Z</time>
      </trkpt>
      <trkpt lat="48.73086" lon="7.046">
        <ele>248.4</ele>
        <time>2023-11-20T10:12:48Z</time>
      </trkpt>
      <trkpt lat="48.73087" lon="7.04598">
        <ele>248.4</ele>
        <time>2023-11-20T10:12:49Z</time>
      </trkpt>
      <trkpt lat="48.73105" lon="7.0459">
        <ele>248.5</ele>
        <time>2023-11-20T10:12:57Z</time>
      </trkpt>
      <trkpt lat="48.7312" lon="7.04574">
        <ele>248.1</ele>
        <time>2023-11-20T10:13:04Z</time>
      </trkpt>
      <trkpt lat="48.73133" lon="7.04552">
        <ele>248</ele>
        <time>2023-11-20T10:13:12Z</time>
      </trkpt>
      <trkpt lat="48.73136" lon="7.04527">
        <ele>248.3</ele>
        <time>2023-11-20T10:13:18Z</time>
      </trkpt>
      <trkpt lat="48.73149" lon="7.04505">
        <ele>248.3</ele>
        <time>2023-11-20T10:13:27Z</time>
      </trkpt>
      <trkpt lat="48.73152" lon="7.04496">
        <ele>248.3</ele>
        <time>2023-11-20T10:13:30Z</time>
      </trkpt>
    </trkseg>
  </trk>
</gpx>